PWSweather.com
Personal Weather Stations
Station Observations
PERRYTONTX
Perryton, TX

Perryton, TX

Lat: 36.3746986, Lon: -100.8124008

Elevation: 2940

Station Type: Rainwise 2000

High Low Average
Temperature 67.0°F19.4°C 29.9°F-1.2°C 47.1°F8.4°C
Dew Point 32.3°F0.2°C 17.4°F-8.1°C 24.9°F-3.9°C
Winds 15.6 mph 25.1 kmh Calm Calm 4.0 mph S6.4 kmh S
Wind Gusts 15.0 mph24.1 kmh -- 6.0 mph9.7 kmh
Humidity 67% 26% 44%
Pressure 30.25 in1024.4 mb 30.03 in1016.9 mb -
Precipitation 0.00 in0.0 mm - -
Hour Temp Dew Point Humidity Winds Wind Gusts Pressure Precip Precip Rate Daily Precip Total
12:00 AM 37.1°F2.8°C 17.2°F-8.2°C 44% Calm Calm 2.0 mph3.2 kmh 30.18 in1022.0 mb 0.00 in0.0 mm 0.00 in/hr0.0 mm/hr 0.00 in0.0 mm
12:02 AM 37.1°F2.8°C 17.2°F-8.2°C 44% Calm Calm 2.0 mph3.2 kmh 30.18 in1022.0 mb 0.00 in0.0 mm 0.00 in/hr0.0 mm/hr 0.00 in0.0 mm
12:04 AM 37.1°F2.8°C 17.2°F-8.2°C 44% Calm Calm 2.0 mph3.2 kmh 30.18 in1022.0 mb 0.00 in0.0 mm 0.00 in/hr0.0 mm/hr 0.00 in0.0 mm
12:06 AM 37.1°F2.8°C 17.7°F-7.9°C 45% Calm Calm 1.0 mph1.6 kmh 30.18 in1022.0 mb 0.00 in0.0 mm 0.00 in/hr0.0 mm/hr 0.00 in0.0 mm
12:08 AM 38.1°F3.4°C 18.1°F-7.7°C 44% Calm Calm -- 30.17 in1021.7 mb 0.00 in0.0 mm 0.00 in/hr0.0 mm/hr 0.00 in0.0 mm
12:10 AM 37.1°F2.8°C 17.7°F-7.9°C 45% Calm Calm -- 30.17 in1021.7 mb 0.00 in0.0 mm 0.00 in/hr0.0 mm/hr 0.00 in0.0 mm
12:12 AM 37.1°F2.8°C 17.7°F-7.9°C 45% 3.9 mph NE6.3 kmh NE 3.0 mph4.8 kmh 30.17 in1021.7 mb 0.00 in0.0 mm 0.00 in/hr0.0 mm/hr 0.00 in0.0 mm
12:14 AM 37.1°F2.8°C 18.2°F-7.7°C 46% 3.9 mph NE6.3 kmh NE 3.0 mph4.8 kmh 30.17 in1021.7 mb 0.00 in0.0 mm 0.00 in/hr0.0 mm/hr 0.00 in0.0 mm
12:16 AM 38.1°F3.4°C 19.2°F-7.1°C 46% 2.6 mph NE4.2 kmh NE 3.0 mph4.8 kmh 30.17 in1021.7 mb 0.00 in0.0 mm 0.00 in/hr0.0 mm/hr 0.00 in0.0 mm
12:18 AM 38.1°F3.4°C 18.7°F-7.4°C 45% 3.9 mph ENE6.3 kmh ENE 3.0 mph4.8 kmh 30.17 in1021.7 mb 0.00 in0.0 mm 0.00 in/hr0.0 mm/hr 0.00 in0.0 mm
12:20 AM 38.1°F3.4°C 18.7°F-7.4°C 45% 3.9 mph ENE6.3 kmh ENE 4.0 mph6.4 kmh 30.17 in1021.7 mb 0.00 in0.0 mm 0.00 in/hr0.0 mm/hr 0.00 in0.0 mm
12:22 AM 39.1°F3.9°C 19.1°F-7.2°C 44% 3.9 mph ENE6.3 kmh ENE 4.0 mph6.4 kmh 30.17 in1021.7 mb 0.00 in0.0 mm 0.00 in/hr0.0 mm/hr 0.00 in0.0 mm
12:24 AM 39.1°F3.9°C 19.1°F-7.2°C 44% 3.9 mph ENE6.3 kmh ENE 4.0 mph6.4 kmh 30.17 in1021.7 mb 0.00 in0.0 mm 0.00 in/hr0.0 mm/hr 0.00 in0.0 mm
12:26 AM 40.2°F4.6°C 20.0°F-6.7°C 44% 3.9 mph ENE6.3 kmh ENE 4.0 mph6.4 kmh 30.17 in1021.7 mb 0.00 in0.0 mm 0.00 in/hr0.0 mm/hr 0.00 in0.0 mm
12:28 AM 40.2°F4.6°C 19.5°F-6.9°C 43% 3.9 mph ENE6.3 kmh ENE 4.0 mph6.4 kmh 30.17 in1021.7 mb 0.00 in0.0 mm 0.00 in/hr0.0 mm/hr 0.00 in0.0 mm
12:30 AM 40.2°F4.6°C 18.9°F-7.3°C 42% 3.9 mph ENE6.3 kmh ENE 4.0 mph6.4 kmh 30.17 in1021.7 mb 0.00 in0.0 mm 0.00 in/hr0.0 mm/hr 0.00 in0.0 mm
12:32 AM 40.2°F4.6°C 18.9°F-7.3°C 42% 3.9 mph ENE6.3 kmh ENE 4.0 mph6.4 kmh 30.17 in1021.7 mb 0.00 in0.0 mm 0.00 in/hr0.0 mm/hr 0.00 in0.0 mm
12:34 AM 41.2°F5.1°C 19.9°F-6.7°C 42% 3.9 mph ENE6.3 kmh ENE 3.0 mph4.8 kmh 30.17 in1021.7 mb 0.00 in0.0 mm 0.00 in/hr0.0 mm/hr 0.00 in0.0 mm
12:36 AM 41.2°F5.1°C 19.9°F-6.7°C 42% 3.9 mph ENE6.3 kmh ENE 3.0 mph4.8 kmh 30.17 in1021.7 mb 0.00 in0.0 mm 0.00 in/hr0.0 mm/hr 0.00 in0.0 mm
12:38 AM 41.2°F5.1°C 19.3°F-7.1°C 41% 3.9 mph ENE6.3 kmh ENE 3.0 mph4.8 kmh 30.16 in1021.3 mb 0.00 in0.0 mm 0.00 in/hr0.0 mm/hr 0.00 in0.0 mm
12:40 AM 41.2°F5.1°C 19.3°F-7.1°C 41% 3.9 mph ENE6.3 kmh ENE 4.0 mph6.4 kmh 30.16 in1021.3 mb 0.00 in0.0 mm 0.00 in/hr0.0 mm/hr 0.00 in0.0 mm
12:42 AM 41.2°F5.1°C 19.3°F-7.1°C 41% 3.9 mph ENE6.3 kmh ENE 4.0 mph6.4 kmh 30.16 in1021.3 mb 0.00 in0.0 mm 0.00 in/hr0.0 mm/hr 0.00 in0.0 mm
12:44 AM 42.2°F5.7°C 19.7°F-6.8°C 40% 5.2 mph ENE8.4 kmh ENE 4.0 mph6.4 kmh 30.16 in1021.3 mb 0.00 in0.0 mm 0.00 in/hr0.0 mm/hr 0.00 in0.0 mm
12:46 AM 42.2°F5.7°C 19.7°F-6.8°C 40% 5.2 mph E8.4 kmh E 4.0 mph6.4 kmh 30.16 in1021.3 mb 0.00 in0.0 mm 0.00 in/hr0.0 mm/hr 0.00 in0.0 mm
12:48 AM 42.2°F5.7°C 19.1°F-7.2°C 39% 5.2 mph E8.4 kmh E 4.0 mph6.4 kmh 30.16 in1021.3 mb 0.00 in0.0 mm 0.00 in/hr0.0 mm/hr 0.00 in0.0 mm
12:50 AM 42.2°F5.7°C 19.1°F-7.2°C 39% 5.2 mph E8.4 kmh E 4.0 mph6.4 kmh 30.16 in1021.3 mb 0.00 in0.0 mm 0.00 in/hr0.0 mm/hr 0.00 in0.0 mm
12:52 AM 42.2°F5.7°C 19.1°F-7.2°C 39% 3.9 mph E6.3 kmh E 4.0 mph6.4 kmh 30.16 in1021.3 mb 0.00 in0.0 mm 0.00 in/hr0.0 mm/hr 0.00 in0.0 mm
12:54 AM 42.2°F5.7°C 19.1°F-7.2°C 39% 2.6 mph E4.2 kmh E 4.0 mph6.4 kmh 30.16 in1021.3 mb 0.00 in0.0 mm 0.00 in/hr0.0 mm/hr 0.00 in0.0 mm
12:56 AM 42.2°F5.7°C 19.1°F-7.2°C 39% 2.6 mph E4.2 kmh E 4.0 mph6.4 kmh 30.16 in1021.3 mb 0.00 in0.0 mm 0.00 in/hr0.0 mm/hr 0.00 in0.0 mm
12:58 AM 42.2°F5.7°C 19.1°F-7.2°C 39% 3.9 mph E6.3 kmh E 4.0 mph6.4 kmh 30.16 in1021.3 mb 0.00 in0.0 mm 0.00 in/hr0.0 mm/hr 0.00 in0.0 mm
01:00 AM 42.2°F5.7°C 19.1°F-7.2°C 39% 5.2 mph E8.4 kmh E 4.0 mph6.4 kmh 30.16 in1021.3 mb 0.00 in0.0 mm 0.00 in/hr0.0 mm/hr 0.00 in0.0 mm
01:02 AM 42.2°F5.7°C 19.1°F-7.2°C 39% 5.2 mph E8.4 kmh E 4.0 mph6.4 kmh 30.16 in1021.3 mb 0.00 in0.0 mm 0.00 in/hr0.0 mm/hr 0.00 in0.0 mm
01:04 AM 42.2°F5.7°C 19.1°F-7.2°C 39% 3.9 mph E6.3 kmh E 4.0 mph6.4 kmh 30.16 in1021.3 mb 0.00 in0.0 mm 0.00 in/hr0.0 mm/hr 0.00 in0.0 mm
01:06 AM 43.3°F6.3°C 20.0°F-6.7°C 39% 3.9 mph E6.3 kmh E 5.0 mph8.0 kmh 30.16 in1021.3 mb 0.00 in0.0 mm 0.00 in/hr0.0 mm/hr 0.00 in0.0 mm
01:08 AM 43.3°F6.3°C 20.0°F-6.7°C 39% 2.6 mph E4.2 kmh E 5.0 mph8.0 kmh 30.15 in1021.0 mb 0.00 in0.0 mm 0.00 in/hr0.0 mm/hr 0.00 in0.0 mm
01:10 AM 42.2°F5.7°C 19.1°F-7.2°C 39% 3.9 mph E6.3 kmh E 4.0 mph6.4 kmh 30.15 in1021.0 mb 0.00 in0.0 mm 0.00 in/hr0.0 mm/hr 0.00 in0.0 mm
01:12 AM 42.2°F5.7°C 19.1°F-7.2°C 39% 3.9 mph E6.3 kmh E 5.0 mph8.0 kmh 30.15 in1021.0 mb 0.00 in0.0 mm 0.00 in/hr0.0 mm/hr 0.00 in0.0 mm
01:14 AM 43.3°F6.3°C 20.0°F-6.7°C 39% 6.5 mph E10.5 kmh E 5.0 mph8.0 kmh 30.15 in1021.0 mb 0.00 in0.0 mm 0.00 in/hr0.0 mm/hr 0.00 in0.0 mm
01:16 AM 43.3°F6.3°C 20.0°F-6.7°C 39% 6.5 mph E10.5 kmh E 6.0 mph9.7 kmh 30.15 in1021.0 mb 0.00 in0.0 mm 0.00 in/hr0.0 mm/hr 0.00 in0.0 mm
01:18 AM 43.3°F6.3°C 20.0°F-6.7°C 39% 3.9 mph E6.3 kmh E 6.0 mph9.7 kmh 30.15 in1021.0 mb 0.00 in0.0 mm 0.00 in/hr0.0 mm/hr 0.00 in0.0 mm
01:20 AM 43.3°F6.3°C 20.0°F-6.7°C 39% 5.2 mph E8.4 kmh E 6.0 mph9.7 kmh 30.15 in1021.0 mb 0.00 in0.0 mm 0.00 in/hr0.0 mm/hr 0.00 in0.0 mm
01:22 AM 43.3°F6.3°C 19.4°F-7.0°C 38% 5.2 mph E8.4 kmh E 5.0 mph8.0 kmh 30.15 in1021.0 mb 0.00 in0.0 mm 0.00 in/hr0.0 mm/hr 0.00 in0.0 mm
01:24 AM 43.3°F6.3°C 19.4°F-7.0°C 38% 3.9 mph E6.3 kmh E 5.0 mph8.0 kmh 30.15 in1021.0 mb 0.00 in0.0 mm 0.00 in/hr0.0 mm/hr 0.00 in0.0 mm
01:26 AM 43.3°F6.3°C 21.7°F-5.7°C 42% 1.3 mph ESE2.1 kmh ESE 5.0 mph8.0 kmh 30.15 in1021.0 mb 0.00 in0.0 mm 0.00 in/hr0.0 mm/hr 0.00 in0.0 mm
01:28 AM 43.3°F6.3°C 20.6°F-6.3°C 40% 5.2 mph SE8.4 kmh SE 5.0 mph8.0 kmh 30.15 in1021.0 mb 0.00 in0.0 mm 0.00 in/hr0.0 mm/hr 0.00 in0.0 mm
01:30 AM 42.2°F5.7°C 19.1°F-7.2°C 39% 1.3 mph SE2.1 kmh SE 4.0 mph6.4 kmh 30.15 in1021.0 mb 0.00 in0.0 mm 0.00 in/hr0.0 mm/hr 0.00 in0.0 mm
01:32 AM 42.2°F5.7°C 19.1°F-7.2°C 39% Calm Calm 4.0 mph6.4 kmh 30.15 in1021.0 mb 0.00 in0.0 mm 0.00 in/hr0.0 mm/hr 0.00 in0.0 mm
01:34 AM 41.2°F5.1°C 18.1°F-7.7°C 39% 2.6 mph ESE4.2 kmh ESE 3.0 mph4.8 kmh 30.15 in1021.0 mb 0.00 in0.0 mm 0.00 in/hr0.0 mm/hr 0.00 in0.0 mm
01:36 AM 41.2°F5.1°C 18.1°F-7.7°C 39% 1.3 mph ESE2.1 kmh ESE 3.0 mph4.8 kmh 30.15 in1021.0 mb 0.00 in0.0 mm 0.00 in/hr0.0 mm/hr 0.00 in0.0 mm
01:38 AM 41.2°F5.1°C 18.1°F-7.7°C 39% Calm Calm 3.0 mph4.8 kmh 30.16 in1021.3 mb 0.00 in0.0 mm 0.00 in/hr0.0 mm/hr 0.00 in0.0 mm
01:40 AM 40.2°F4.6°C 17.8°F-7.9°C 40% 1.3 mph ESE2.1 kmh ESE 2.0 mph3.2 kmh 30.16 in1021.3 mb 0.00 in0.0 mm 0.00 in/hr0.0 mm/hr 0.00 in0.0 mm
01:42 AM 39.1°F3.9°C 17.4°F-8.1°C 41% 1.3 mph ESE2.1 kmh ESE 2.0 mph3.2 kmh 30.16 in1021.3 mb 0.00 in0.0 mm 0.00 in/hr0.0 mm/hr 0.00 in0.0 mm
01:44 AM 39.1°F3.9°C 18.0°F-7.8°C 42% 3.9 mph E6.3 kmh E 3.0 mph4.8 kmh 30.16 in1021.3 mb 0.00 in0.0 mm 0.00 in/hr0.0 mm/hr 0.00 in0.0 mm
01:46 AM 39.1°F3.9°C 18.5°F-7.5°C 43% 3.9 mph E6.3 kmh E 4.0 mph6.4 kmh 30.16 in1021.3 mb 0.00 in0.0 mm 0.00 in/hr0.0 mm/hr 0.00 in0.0 mm
01:48 AM 39.1°F3.9°C 18.0°F-7.8°C 42% 5.2 mph E8.4 kmh E 4.0 mph6.4 kmh 30.17 in1021.7 mb 0.00 in0.0 mm 0.00 in/hr0.0 mm/hr 0.00 in0.0 mm
01:50 AM 39.1°F3.9°C 18.5°F-7.5°C 43% 5.2 mph E8.4 kmh E 4.0 mph6.4 kmh 30.17 in1021.7 mb 0.00 in0.0 mm 0.00 in/hr0.0 mm/hr 0.00 in0.0 mm
01:52 AM 39.1°F3.9°C 18.5°F-7.5°C 43% 5.2 mph E8.4 kmh E 5.0 mph8.0 kmh 30.17 in1021.7 mb 0.00 in0.0 mm 0.00 in/hr0.0 mm/hr 0.00 in0.0 mm
01:54 AM 39.1°F3.9°C 18.5°F-7.5°C 43% 5.2 mph E8.4 kmh E 5.0 mph8.0 kmh 30.17 in1021.7 mb 0.00 in0.0 mm 0.00 in/hr0.0 mm/hr 0.00 in0.0 mm
01:56 AM 39.1°F3.9°C 18.5°F-7.5°C 43% 3.9 mph E6.3 kmh E 5.0 mph8.0 kmh 30.17 in1021.7 mb 0.00 in0.0 mm 0.00 in/hr0.0 mm/hr 0.00 in0.0 mm
01:58 AM 40.2°F4.6°C 20.0°F-6.7°C 44% 5.2 mph E8.4 kmh E 4.0 mph6.4 kmh 30.17 in1021.7 mb 0.00 in0.0 mm 0.00 in/hr0.0 mm/hr 0.00 in0.0 mm
02:00 AM 39.1°F3.9°C 19.1°F-7.2°C 44% 5.2 mph E8.4 kmh E 4.0 mph6.4 kmh 30.17 in1021.7 mb 0.00 in0.0 mm 0.00 in/hr0.0 mm/hr 0.00 in0.0 mm
02:02 AM 40.2°F4.6°C 20.0°F-6.7°C 44% 3.9 mph E6.3 kmh E 4.0 mph6.4 kmh 30.17 in1021.7 mb 0.00 in0.0 mm 0.00 in/hr0.0 mm/hr 0.00 in0.0 mm
02:04 AM 40.2°F4.6°C 20.0°F-6.7°C 44% 5.2 mph E8.4 kmh E 4.0 mph6.4 kmh 30.17 in1021.7 mb 0.00 in0.0 mm 0.00 in/hr0.0 mm/hr 0.00 in0.0 mm
02:06 AM 40.2°F4.6°C 20.5°F-6.4°C 45% 5.2 mph E8.4 kmh E 7.0 mph11.3 kmh 30.17 in1021.7 mb 0.00 in0.0 mm 0.00 in/hr0.0 mm/hr 0.00 in0.0 mm
02:08 AM 41.2°F5.1°C 21.0°F-6.1°C 44% 6.5 mph E10.5 kmh E 7.0 mph11.3 kmh 30.16 in1021.3 mb 0.00 in0.0 mm 0.00 in/hr0.0 mm/hr 0.00 in0.0 mm
02:10 AM 41.2°F5.1°C 21.0°F-6.1°C 44% 6.5 mph E10.5 kmh E 7.0 mph11.3 kmh 30.16 in1021.3 mb 0.00 in0.0 mm 0.00 in/hr0.0 mm/hr 0.00 in0.0 mm
02:12 AM 41.2°F5.1°C 21.0°F-6.1°C 44% 5.2 mph E8.4 kmh E 6.0 mph9.7 kmh 30.16 in1021.3 mb 0.00 in0.0 mm 0.00 in/hr0.0 mm/hr 0.00 in0.0 mm
02:14 AM 41.2°F5.1°C 20.4°F-6.4°C 43% 6.5 mph E10.5 kmh E 6.0 mph9.7 kmh 30.16 in1021.3 mb 0.00 in0.0 mm 0.00 in/hr0.0 mm/hr 0.00 in0.0 mm
02:16 AM 41.2°F5.1°C 20.4°F-6.4°C 43% 5.2 mph E8.4 kmh E 7.0 mph11.3 kmh 30.16 in1021.3 mb 0.00 in0.0 mm 0.00 in/hr0.0 mm/hr 0.00 in0.0 mm
02:18 AM 41.2°F5.1°C 19.9°F-6.7°C 42% 7.8 mph E12.6 kmh E 7.0 mph11.3 kmh 30.16 in1021.3 mb 0.00 in0.0 mm 0.00 in/hr0.0 mm/hr 0.00 in0.0 mm
02:20 AM 41.2°F5.1°C 20.4°F-6.4°C 43% 6.5 mph E10.5 kmh E 7.0 mph11.3 kmh 30.16 in1021.3 mb 0.00 in0.0 mm 0.00 in/hr0.0 mm/hr 0.00 in0.0 mm
02:22 AM 41.2°F5.1°C 20.4°F-6.4°C 43% 6.5 mph E10.5 kmh E 7.0 mph11.3 kmh 30.16 in1021.3 mb 0.00 in0.0 mm 0.00 in/hr0.0 mm/hr 0.00 in0.0 mm
02:24 AM 41.2°F5.1°C 20.4°F-6.4°C 43% 6.5 mph E10.5 kmh E 6.0 mph9.7 kmh 30.16 in1021.3 mb 0.00 in0.0 mm 0.00 in/hr0.0 mm/hr 0.00 in0.0 mm
02:26 AM 41.2°F5.1°C 19.9°F-6.7°C 42% 6.5 mph E10.5 kmh E 6.0 mph9.7 kmh 30.16 in1021.3 mb 0.00 in0.0 mm 0.00 in/hr0.0 mm/hr 0.00 in0.0 mm
02:28 AM 41.2°F5.1°C 19.9°F-6.7°C 42% 5.2 mph E8.4 kmh E 6.0 mph9.7 kmh 30.16 in1021.3 mb 0.00 in0.0 mm 0.00 in/hr0.0 mm/hr 0.00 in0.0 mm
02:30 AM 41.2°F5.1°C 20.4°F-6.4°C 43% 3.9 mph E6.3 kmh E 6.0 mph9.7 kmh 30.16 in1021.3 mb 0.00 in0.0 mm 0.00 in/hr0.0 mm/hr 0.00 in0.0 mm
02:32 AM 40.2°F4.6°C 19.5°F-6.9°C 43% 5.2 mph E8.4 kmh E 6.0 mph9.7 kmh 30.16 in1021.3 mb 0.00 in0.0 mm 0.00 in/hr0.0 mm/hr 0.00 in0.0 mm
02:34 AM 40.2°F4.6°C 19.5°F-6.9°C 43% 3.9 mph E6.3 kmh E 6.0 mph9.7 kmh 30.16 in1021.3 mb 0.00 in0.0 mm 0.00 in/hr0.0 mm/hr 0.00 in0.0 mm
02:36 AM 40.2°F4.6°C 20.0°F-6.7°C 44% 3.9 mph E6.3 kmh E 6.0 mph9.7 kmh 30.16 in1021.3 mb 0.00 in0.0 mm 0.00 in/hr0.0 mm/hr 0.00 in0.0 mm
02:38 AM 40.2°F4.6°C 20.0°F-6.7°C 44% 3.9 mph E6.3 kmh E 5.0 mph8.0 kmh 30.16 in1021.3 mb 0.00 in0.0 mm 0.00 in/hr0.0 mm/hr 0.00 in0.0 mm
02:40 AM 40.2°F4.6°C 20.0°F-6.7°C 44% 3.9 mph E6.3 kmh E 5.0 mph8.0 kmh 30.16 in1021.3 mb 0.00 in0.0 mm 0.00 in/hr0.0 mm/hr 0.00 in0.0 mm
02:42 AM 40.2°F4.6°C 20.0°F-6.7°C 44% 5.2 mph E8.4 kmh E 6.0 mph9.7 kmh 30.16 in1021.3 mb 0.00 in0.0 mm 0.00 in/hr0.0 mm/hr 0.00 in0.0 mm
02:44 AM 39.1°F3.9°C 19.6°F-6.9°C 45% 3.9 mph ESE6.3 kmh ESE 6.0 mph9.7 kmh 30.16 in1021.3 mb 0.00 in0.0 mm 0.00 in/hr0.0 mm/hr 0.00 in0.0 mm
02:46 AM 39.1°F3.9°C 19.6°F-6.9°C 45% 5.2 mph E8.4 kmh E 6.0 mph9.7 kmh 30.16 in1021.3 mb 0.00 in0.0 mm 0.00 in/hr0.0 mm/hr 0.00 in0.0 mm
02:48 AM 39.1°F3.9°C 19.6°F-6.9°C 45% 5.2 mph E8.4 kmh E 5.0 mph8.0 kmh 30.16 in1021.3 mb 0.00 in0.0 mm 0.00 in/hr0.0 mm/hr 0.00 in0.0 mm
02:50 AM 39.1°F3.9°C 19.6°F-6.9°C 45% 6.5 mph E10.5 kmh E 5.0 mph8.0 kmh 30.16 in1021.3 mb 0.00 in0.0 mm 0.00 in/hr0.0 mm/hr 0.00 in0.0 mm
02:52 AM 39.1°F3.9°C 20.1°F-6.6°C 46% 5.2 mph E8.4 kmh E 5.0 mph8.0 kmh 30.16 in1021.3 mb 0.00 in0.0 mm 0.00 in/hr0.0 mm/hr 0.00 in0.0 mm
02:54 AM 39.1°F3.9°C 20.1°F-6.6°C 46% 3.9 mph E6.3 kmh E 5.0 mph8.0 kmh 30.16 in1021.3 mb 0.00 in0.0 mm 0.00 in/hr0.0 mm/hr 0.00 in0.0 mm
02:56 AM 38.1°F3.4°C 19.2°F-7.1°C 46% 5.2 mph E8.4 kmh E 5.0 mph8.0 kmh 30.16 in1021.3 mb 0.00 in0.0 mm 0.00 in/hr0.0 mm/hr 0.00 in0.0 mm
02:58 AM 39.1°F3.9°C 20.1°F-6.6°C 46% 5.2 mph ESE8.4 kmh ESE 4.0 mph6.4 kmh 30.17 in1021.7 mb 0.00 in0.0 mm 0.00 in/hr0.0 mm/hr 0.00 in0.0 mm
03:00 AM 38.1°F3.4°C 19.2°F-7.1°C 46% 5.2 mph E8.4 kmh E 5.0 mph8.0 kmh 30.17 in1021.7 mb 0.00 in0.0 mm 0.00 in/hr0.0 mm/hr 0.00 in0.0 mm
03:02 AM 38.1°F3.4°C 19.2°F-7.1°C 46% 3.9 mph E6.3 kmh E 5.0 mph8.0 kmh 30.17 in1021.7 mb 0.00 in0.0 mm 0.00 in/hr0.0 mm/hr 0.00 in0.0 mm
03:04 AM 38.1°F3.4°C 19.2°F-7.1°C 46% 2.6 mph ESE4.2 kmh ESE 5.0 mph8.0 kmh 30.17 in1021.7 mb 0.00 in0.0 mm 0.00 in/hr0.0 mm/hr 0.00 in0.0 mm
03:06 AM 38.1°F3.4°C 19.2°F-7.1°C 46% 1.3 mph ESE2.1 kmh ESE 4.0 mph6.4 kmh 30.17 in1021.7 mb 0.00 in0.0 mm 0.00 in/hr0.0 mm/hr 0.00 in0.0 mm
03:08 AM 38.1°F3.4°C 19.2°F-7.1°C 46% 3.9 mph E6.3 kmh E 4.0 mph6.4 kmh 30.17 in1021.7 mb 0.00 in0.0 mm 0.00 in/hr0.0 mm/hr 0.00 in0.0 mm
03:10 AM 37.1°F2.8°C 18.7°F-7.4°C 47% 2.6 mph E4.2 kmh E 3.0 mph4.8 kmh 30.17 in1021.7 mb 0.00 in0.0 mm 0.00 in/hr0.0 mm/hr 0.00 in0.0 mm
03:12 AM 37.1°F2.8°C 19.2°F-7.1°C 48% 3.9 mph E6.3 kmh E 4.0 mph6.4 kmh 30.17 in1021.7 mb 0.00 in0.0 mm 0.00 in/hr0.0 mm/hr 0.00 in0.0 mm
03:14 AM 37.1°F2.8°C 18.7°F-7.4°C 47% 3.9 mph E6.3 kmh E 4.0 mph6.4 kmh 30.17 in1021.7 mb 0.00 in0.0 mm 0.00 in/hr0.0 mm/hr 0.00 in0.0 mm
03:16 AM 37.1°F2.8°C 18.7°F-7.4°C 47% 3.9 mph E6.3 kmh E 4.0 mph6.4 kmh 30.17 in1021.7 mb 0.00 in0.0 mm 0.00 in/hr0.0 mm/hr 0.00 in0.0 mm
03:18 AM 37.1°F2.8°C 18.7°F-7.4°C 47% 3.9 mph E6.3 kmh E 3.0 mph4.8 kmh 30.16 in1021.3 mb 0.00 in0.0 mm 0.00 in/hr0.0 mm/hr 0.00 in0.0 mm
03:20 AM 37.1°F2.8°C 19.7°F-6.8°C 49% 2.6 mph E4.2 kmh E 4.0 mph6.4 kmh 30.16 in1021.3 mb 0.00 in0.0 mm 0.00 in/hr0.0 mm/hr 0.00 in0.0 mm
03:22 AM 37.1°F2.8°C 19.7°F-6.8°C 49% 3.9 mph E6.3 kmh E 4.0 mph6.4 kmh 30.16 in1021.3 mb 0.00 in0.0 mm 0.00 in/hr0.0 mm/hr 0.00 in0.0 mm
03:24 AM 37.1°F2.8°C 19.7°F-6.8°C 49% 3.9 mph E6.3 kmh E 3.0 mph4.8 kmh 30.16 in1021.3 mb 0.00 in0.0 mm 0.00 in/hr0.0 mm/hr 0.00 in0.0 mm
03:26 AM 37.1°F2.8°C 19.7°F-6.8°C 49% 3.9 mph E6.3 kmh E 4.0 mph6.4 kmh 30.16 in1021.3 mb 0.00 in0.0 mm 0.00 in/hr0.0 mm/hr 0.00 in0.0 mm
03:28 AM 37.1°F2.8°C 19.7°F-6.8°C 49% 3.9 mph E6.3 kmh E 4.0 mph6.4 kmh 30.17 in1021.7 mb 0.00 in0.0 mm 0.00 in/hr0.0 mm/hr 0.00 in0.0 mm
03:30 AM 37.1°F2.8°C 20.2°F-6.6°C 50% 3.9 mph E6.3 kmh E 4.0 mph6.4 kmh 30.17 in1021.7 mb 0.00 in0.0 mm 0.00 in/hr0.0 mm/hr 0.00 in0.0 mm
03:32 AM 37.1°F2.8°C 20.2°F-6.6°C 50% 3.9 mph E6.3 kmh E 4.0 mph6.4 kmh 30.17 in1021.7 mb 0.00 in0.0 mm 0.00 in/hr0.0 mm/hr 0.00 in0.0 mm
03:34 AM 37.1°F2.8°C 20.2°F-6.6°C 50% 3.9 mph E6.3 kmh E 4.0 mph6.4 kmh 30.17 in1021.7 mb 0.00 in0.0 mm 0.00 in/hr0.0 mm/hr 0.00 in0.0 mm
03:36 AM 37.1°F2.8°C 20.2°F-6.6°C 50% 3.9 mph E6.3 kmh E 4.0 mph6.4 kmh 30.17 in1021.7 mb 0.00 in0.0 mm 0.00 in/hr0.0 mm/hr 0.00 in0.0 mm
03:38 AM 37.1°F2.8°C 20.2°F-6.6°C 50% 3.9 mph E6.3 kmh E 4.0 mph6.4 kmh 30.17 in1021.7 mb 0.00 in0.0 mm 0.00 in/hr0.0 mm/hr 0.00 in0.0 mm
03:40 AM 37.1°F2.8°C 20.2°F-6.6°C 50% 2.6 mph E4.2 kmh E 4.0 mph6.4 kmh 30.17 in1021.7 mb 0.00 in0.0 mm 0.00 in/hr0.0 mm/hr 0.00 in0.0 mm
03:42 AM 37.1°F2.8°C 20.2°F-6.6°C 50% Calm Calm 3.0 mph4.8 kmh 30.17 in1021.7 mb 0.00 in0.0 mm 0.00 in/hr0.0 mm/hr 0.00 in0.0 mm
03:44 AM 37.1°F2.8°C 20.6°F-6.3°C 51% Calm Calm 3.0 mph4.8 kmh 30.17 in1021.7 mb 0.00 in0.0 mm 0.00 in/hr0.0 mm/hr 0.00 in0.0 mm
03:46 AM 37.1°F2.8°C 20.6°F-6.3°C 51% 2.6 mph E4.2 kmh E 2.0 mph3.2 kmh 30.17 in1021.7 mb 0.00 in0.0 mm 0.00 in/hr0.0 mm/hr 0.00 in0.0 mm
03:48 AM 37.1°F2.8°C 20.6°F-6.3°C 51% 2.6 mph E4.2 kmh E 2.0 mph3.2 kmh 30.17 in1021.7 mb 0.00 in0.0 mm 0.00 in/hr0.0 mm/hr 0.00 in0.0 mm
03:50 AM 37.1°F2.8°C 20.6°F-6.3°C 51% 1.3 mph E2.1 kmh E 2.0 mph3.2 kmh 30.17 in1021.7 mb 0.00 in0.0 mm 0.00 in/hr0.0 mm/hr 0.00 in0.0 mm
03:52 AM 37.1°F2.8°C 20.6°F-6.3°C 51% 1.3 mph E2.1 kmh E 2.0 mph3.2 kmh 30.17 in1021.7 mb 0.00 in0.0 mm 0.00 in/hr0.0 mm/hr 0.00 in0.0 mm
03:54 AM 37.1°F2.8°C 20.6°F-6.3°C 51% Calm Calm 2.0 mph3.2 kmh 30.17 in1021.7 mb 0.00 in0.0 mm 0.00 in/hr0.0 mm/hr 0.00 in0.0 mm
03:56 AM 37.1°F2.8°C 20.6°F-6.3°C 51% Calm Calm 1.0 mph1.6 kmh 30.17 in1021.7 mb 0.00 in0.0 mm 0.00 in/hr0.0 mm/hr 0.00 in0.0 mm
03:58 AM 37.1°F2.8°C 19.7°F-6.8°C 49% Calm Calm -- 30.17 in1021.7 mb 0.00 in0.0 mm 0.00 in/hr0.0 mm/hr 0.00 in0.0 mm
04:00 AM 36.1°F2.3°C 18.8°F-7.3°C 49% 3.9 mph SSW6.3 kmh SSW 3.0 mph4.8 kmh 30.17 in1021.7 mb 0.00 in0.0 mm 0.00 in/hr0.0 mm/hr 0.00 in0.0 mm
04:02 AM 36.1°F2.3°C 19.2°F-7.1°C 50% 3.9 mph SSW6.3 kmh SSW 3.0 mph4.8 kmh 30.17 in1021.7 mb 0.00 in0.0 mm 0.00 in/hr0.0 mm/hr 0.00 in0.0 mm
04:04 AM 36.1°F2.3°C 19.7°F-6.8°C 51% 3.9 mph SSW6.3 kmh SSW 3.0 mph4.8 kmh 30.17 in1021.7 mb 0.00 in0.0 mm 0.00 in/hr0.0 mm/hr 0.00 in0.0 mm
04:06 AM 36.1°F2.3°C 19.7°F-6.8°C 51% 2.6 mph SSW4.2 kmh SSW 3.0 mph4.8 kmh 30.17 in1021.7 mb 0.00 in0.0 mm 0.00 in/hr0.0 mm/hr 0.00 in0.0 mm
04:08 AM 36.1°F2.3°C 19.7°F-6.8°C 51% Calm Calm 3.0 mph4.8 kmh 30.18 in1022.0 mb 0.00 in0.0 mm 0.00 in/hr0.0 mm/hr 0.00 in0.0 mm
04:10 AM 36.1°F2.3°C 19.7°F-6.8°C 51% Calm Calm 2.0 mph3.2 kmh 30.18 in1022.0 mb 0.00 in0.0 mm 0.00 in/hr0.0 mm/hr 0.00 in0.0 mm
04:12 AM 36.1°F2.3°C 19.7°F-6.8°C 51% Calm Calm -- 30.18 in1022.0 mb 0.00 in0.0 mm 0.00 in/hr0.0 mm/hr 0.00 in0.0 mm
04:14 AM 36.1°F2.3°C 19.7°F-6.8°C 51% Calm Calm -- 30.18 in1022.0 mb 0.00 in0.0 mm 0.00 in/hr0.0 mm/hr 0.00 in0.0 mm
04:16 AM 35.0°F1.7°C 18.3°F-7.6°C 50% Calm Calm -- 30.18 in1022.0 mb 0.00 in0.0 mm 0.00 in/hr0.0 mm/hr 0.00 in0.0 mm
04:18 AM 36.1°F2.3°C 18.8°F-7.3°C 49% Calm Calm -- 30.18 in1022.0 mb 0.00 in0.0 mm 0.00 in/hr0.0 mm/hr 0.00 in0.0 mm
04:20 AM 35.0°F1.7°C 17.8°F-7.9°C 49% Calm Calm -- 30.18 in1022.0 mb 0.00 in0.0 mm 0.00 in/hr0.0 mm/hr 0.00 in0.0 mm
04:22 AM 35.0°F1.7°C 18.3°F-7.6°C 50% Calm Calm -- 30.18 in1022.0 mb 0.00 in0.0 mm 0.00 in/hr0.0 mm/hr 0.00 in0.0 mm
04:24 AM 35.0°F1.7°C 18.3°F-7.6°C 50% Calm Calm -- 30.18 in1022.0 mb 0.00 in0.0 mm 0.00 in/hr0.0 mm/hr 0.00 in0.0 mm
04:26 AM 35.0°F1.7°C 18.7°F-7.4°C 51% Calm Calm -- 30.18 in1022.0 mb 0.00 in0.0 mm 0.00 in/hr0.0 mm/hr 0.00 in0.0 mm
04:28 AM 35.0°F1.7°C 18.7°F-7.4°C 51% Calm Calm -- 30.18 in1022.0 mb 0.00 in0.0 mm 0.00 in/hr0.0 mm/hr 0.00 in0.0 mm
04:30 AM 35.0°F1.7°C 18.7°F-7.4°C 51% Calm Calm -- 30.18 in1022.0 mb 0.00 in0.0 mm 0.00 in/hr0.0 mm/hr 0.00 in0.0 mm
04:32 AM 35.0°F1.7°C 18.7°F-7.4°C 51% Calm Calm -- 30.18 in1022.0 mb 0.00 in0.0 mm 0.00 in/hr0.0 mm/hr 0.00 in0.0 mm
04:34 AM 35.0°F1.7°C 18.7°F-7.4°C 51% Calm Calm -- 30.18 in1022.0 mb 0.00 in0.0 mm 0.00 in/hr0.0 mm/hr 0.00 in0.0 mm
04:36 AM 35.0°F1.7°C 18.7°F-7.4°C 51% Calm Calm -- 30.18 in1022.0 mb 0.00 in0.0 mm 0.00 in/hr0.0 mm/hr 0.00 in0.0 mm
04:38 AM 35.0°F1.7°C 18.7°F-7.4°C 51% Calm Calm 1.0 mph1.6 kmh 30.18 in1022.0 mb 0.00 in0.0 mm 0.00 in/hr0.0 mm/hr 0.00 in0.0 mm
04:40 AM 35.0°F1.7°C 19.2°F-7.1°C 52% Calm Calm 1.0 mph1.6 kmh 30.18 in1022.0 mb 0.00 in0.0 mm 0.00 in/hr0.0 mm/hr 0.00 in0.0 mm
04:42 AM 35.0°F1.7°C 19.6°F-6.9°C 53% 2.6 mph S4.2 kmh S 2.0 mph3.2 kmh 30.18 in1022.0 mb 0.00 in0.0 mm 0.00 in/hr0.0 mm/hr 0.00 in0.0 mm
04:44 AM 35.0°F1.7°C 20.1°F-6.6°C 54% 1.3 mph S2.1 kmh S 2.0 mph3.2 kmh 30.18 in1022.0 mb 0.00 in0.0 mm 0.00 in/hr0.0 mm/hr 0.00 in0.0 mm
04:46 AM 36.1°F2.3°C 21.9°F-5.6°C 56% 1.3 mph S2.1 kmh S 2.0 mph3.2 kmh 30.18 in1022.0 mb 0.00 in0.0 mm 0.00 in/hr0.0 mm/hr 0.00 in0.0 mm
04:48 AM 36.1°F2.3°C 21.0°F-6.1°C 54% Calm Calm 2.0 mph3.2 kmh 30.17 in1021.7 mb 0.00 in0.0 mm 0.00 in/hr0.0 mm/hr 0.00 in0.0 mm
04:50 AM 36.1°F2.3°C 21.0°F-6.1°C 54% 2.6 mph SSE4.2 kmh SSE 2.0 mph3.2 kmh 30.17 in1021.7 mb 0.00 in0.0 mm 0.00 in/hr0.0 mm/hr 0.00 in0.0 mm
04:52 AM 36.1°F2.3°C 21.0°F-6.1°C 54% 2.6 mph SE4.2 kmh SE 3.0 mph4.8 kmh 30.17 in1021.7 mb 0.00 in0.0 mm 0.00 in/hr0.0 mm/hr 0.00 in0.0 mm
04:54 AM 36.1°F2.3°C 20.6°F-6.3°C 53% 2.6 mph SE4.2 kmh SE 3.0 mph4.8 kmh 30.17 in1021.7 mb 0.00 in0.0 mm 0.00 in/hr0.0 mm/hr 0.00 in0.0 mm
04:56 AM 36.1°F2.3°C 20.6°F-6.3°C 53% 3.9 mph SE6.3 kmh SE 3.0 mph4.8 kmh 30.17 in1021.7 mb 0.00 in0.0 mm 0.00 in/hr0.0 mm/hr 0.00 in0.0 mm
04:58 AM 36.1°F2.3°C 20.1°F-6.6°C 52% 5.2 mph SE8.4 kmh SE 4.0 mph6.4 kmh 30.17 in1021.7 mb 0.00 in0.0 mm 0.00 in/hr0.0 mm/hr 0.00 in0.0 mm
05:00 AM 36.1°F2.3°C 20.6°F-6.3°C 53% 2.6 mph SE4.2 kmh SE 4.0 mph6.4 kmh 30.17 in1021.7 mb 0.00 in0.0 mm 0.00 in/hr0.0 mm/hr 0.00 in0.0 mm
05:02 AM 36.1°F2.3°C 20.6°F-6.3°C 53% 2.6 mph SE4.2 kmh SE 4.0 mph6.4 kmh 30.17 in1021.7 mb 0.00 in0.0 mm 0.00 in/hr0.0 mm/hr 0.00 in0.0 mm
05:04 AM 36.1°F2.3°C 20.6°F-6.3°C 53% 1.3 mph SE2.1 kmh SE 4.0 mph6.4 kmh 30.17 in1021.7 mb 0.00 in0.0 mm 0.00 in/hr0.0 mm/hr 0.00 in0.0 mm
05:06 AM 36.1°F2.3°C 20.1°F-6.6°C 52% 3.9 mph ESE6.3 kmh ESE 4.0 mph6.4 kmh 30.17 in1021.7 mb 0.00 in0.0 mm 0.00 in/hr0.0 mm/hr 0.00 in0.0 mm
05:08 AM 36.1°F2.3°C 20.1°F-6.6°C 52% 1.3 mph SE2.1 kmh SE 5.0 mph8.0 kmh 30.17 in1021.7 mb 0.00 in0.0 mm 0.00 in/hr0.0 mm/hr 0.00 in0.0 mm
05:10 AM 36.1°F2.3°C 20.6°F-6.3°C 53% 2.6 mph SE4.2 kmh SE 5.0 mph8.0 kmh 30.17 in1021.7 mb 0.00 in0.0 mm 0.00 in/hr0.0 mm/hr 0.00 in0.0 mm
05:12 AM 36.1°F2.3°C 20.6°F-6.3°C 53% 2.6 mph SE4.2 kmh SE 3.0 mph4.8 kmh 30.17 in1021.7 mb 0.00 in0.0 mm 0.00 in/hr0.0 mm/hr 0.00 in0.0 mm
05:14 AM 35.0°F1.7°C 20.1°F-6.6°C 54% 3.9 mph SE6.3 kmh SE 4.0 mph6.4 kmh 30.17 in1021.7 mb 0.00 in0.0 mm 0.00 in/hr0.0 mm/hr 0.00 in0.0 mm
05:16 AM 35.0°F1.7°C 20.1°F-6.6°C 54% 2.6 mph SE4.2 kmh SE 4.0 mph6.4 kmh 30.17 in1021.7 mb 0.00 in0.0 mm 0.00 in/hr0.0 mm/hr 0.00 in0.0 mm
05:18 AM 35.0°F1.7°C 20.1°F-6.6°C 54% 2.6 mph ESE4.2 kmh ESE 4.0 mph6.4 kmh 30.16 in1021.3 mb 0.00 in0.0 mm 0.00 in/hr0.0 mm/hr 0.00 in0.0 mm
05:20 AM 35.0°F1.7°C 20.1°F-6.6°C 54% 2.6 mph ESE4.2 kmh ESE 3.0 mph4.8 kmh 30.16 in1021.3 mb 0.00 in0.0 mm 0.00 in/hr0.0 mm/hr 0.00 in0.0 mm
05:22 AM 35.0°F1.7°C 20.9°F-6.2°C 56% 2.6 mph ESE4.2 kmh ESE 3.0 mph4.8 kmh 30.16 in1021.3 mb 0.00 in0.0 mm 0.00 in/hr0.0 mm/hr 0.00 in0.0 mm
05:24 AM 35.0°F1.7°C 22.6°F-5.2°C 60% 2.6 mph ESE4.2 kmh ESE 3.0 mph4.8 kmh 30.16 in1021.3 mb 0.00 in0.0 mm 0.00 in/hr0.0 mm/hr 0.00 in0.0 mm
05:26 AM 35.0°F1.7°C 22.9°F-5.1°C 61% Calm Calm 3.0 mph4.8 kmh 30.16 in1021.3 mb 0.00 in0.0 mm 0.00 in/hr0.0 mm/hr 0.00 in0.0 mm
05:28 AM 36.1°F2.3°C 23.1°F-4.9°C 59% Calm Calm 3.0 mph4.8 kmh 30.17 in1021.7 mb 0.00 in0.0 mm 0.00 in/hr0.0 mm/hr 0.00 in0.0 mm
05:30 AM 35.0°F1.7°C 21.3°F-5.9°C 57% Calm Calm 3.0 mph4.8 kmh 30.17 in1021.7 mb 0.00 in0.0 mm 0.00 in/hr0.0 mm/hr 0.00 in0.0 mm
05:32 AM 35.0°F1.7°C 20.9°F-6.2°C 56% Calm Calm 2.0 mph3.2 kmh 30.17 in1021.7 mb 0.00 in0.0 mm 0.00 in/hr0.0 mm/hr 0.00 in0.0 mm
05:36 AM 35.0°F1.7°C 20.5°F-6.4°C 55% Calm Calm -- 30.17 in1021.7 mb 0.00 in0.0 mm 0.00 in/hr0.0 mm/hr 0.00 in0.0 mm
05:38 AM 35.0°F1.7°C 20.1°F-6.6°C 54% Calm Calm -- 30.17 in1021.7 mb 0.00 in0.0 mm 0.00 in/hr0.0 mm/hr 0.00 in0.0 mm
05:40 AM 34.0°F1.1°C 19.1°F-7.2°C 54% Calm Calm -- 30.17 in1021.7 mb 0.00 in0.0 mm 0.00 in/hr0.0 mm/hr 0.00 in0.0 mm
05:42 AM 34.0°F1.1°C 19.5°F-6.9°C 55% Calm Calm -- 30.17 in1021.7 mb 0.00 in0.0 mm 0.00 in/hr0.0 mm/hr 0.00 in0.0 mm
05:46 AM 34.0°F1.1°C 20.4°F-6.4°C 57% Calm Calm -- 30.17 in1021.7 mb 0.00 in0.0 mm 0.00 in/hr0.0 mm/hr 0.00 in0.0 mm
05:48 AM 34.0°F1.1°C 20.4°F-6.4°C 57% 2.6 mph SE4.2 kmh SE 3.0 mph4.8 kmh 30.17 in1021.7 mb 0.00 in0.0 mm 0.00 in/hr0.0 mm/hr 0.00 in0.0 mm
05:50 AM 34.0°F1.1°C 20.8°F-6.2°C 58% 2.6 mph SE4.2 kmh SE 3.0 mph4.8 kmh 30.17 in1021.7 mb 0.00 in0.0 mm 0.00 in/hr0.0 mm/hr 0.00 in0.0 mm
05:52 AM 34.0°F1.1°C 20.8°F-6.2°C 58% 3.9 mph SE6.3 kmh SE 3.0 mph4.8 kmh 30.17 in1021.7 mb 0.00 in0.0 mm 0.00 in/hr0.0 mm/hr 0.00 in0.0 mm
05:54 AM 34.0°F1.1°C 20.8°F-6.2°C 58% 2.6 mph SE4.2 kmh SE 3.0 mph4.8 kmh 30.17 in1021.7 mb 0.00 in0.0 mm 0.00 in/hr0.0 mm/hr 0.00 in0.0 mm
05:56 AM 34.0°F1.1°C 21.2°F-6.0°C 59% 3.9 mph SE6.3 kmh SE 3.0 mph4.8 kmh 30.17 in1021.7 mb 0.00 in0.0 mm 0.00 in/hr0.0 mm/hr 0.00 in0.0 mm
05:58 AM 35.0°F1.7°C 22.6°F-5.2°C 60% 2.6 mph SE4.2 kmh SE 3.0 mph4.8 kmh 30.17 in1021.7 mb 0.00 in0.0 mm 0.00 in/hr0.0 mm/hr 0.00 in0.0 mm
06:00 AM 34.0°F1.1°C 20.8°F-6.2°C 58% 1.3 mph SE2.1 kmh SE 3.0 mph4.8 kmh 30.17 in1021.7 mb 0.00 in0.0 mm 0.00 in/hr0.0 mm/hr 0.00 in0.0 mm
06:02 AM 34.0°F1.1°C 20.8°F-6.2°C 58% 2.6 mph SE4.2 kmh SE 3.0 mph4.8 kmh 30.17 in1021.7 mb 0.00 in0.0 mm 0.00 in/hr0.0 mm/hr 0.00 in0.0 mm
06:04 AM 34.0°F1.1°C 20.8°F-6.2°C 58% 3.9 mph SE6.3 kmh SE 3.0 mph4.8 kmh 30.17 in1021.7 mb 0.00 in0.0 mm 0.00 in/hr0.0 mm/hr 0.00 in0.0 mm
06:06 AM 34.0°F1.1°C 20.8°F-6.2°C 58% 3.9 mph SE6.3 kmh SE 3.0 mph4.8 kmh 30.17 in1021.7 mb 0.00 in0.0 mm 0.00 in/hr0.0 mm/hr 0.00 in0.0 mm
06:08 AM 35.0°F1.7°C 21.8°F-5.7°C 58% 2.6 mph SE4.2 kmh SE 3.0 mph4.8 kmh 30.17 in1021.7 mb 0.00 in0.0 mm 0.00 in/hr0.0 mm/hr 0.00 in0.0 mm
06:10 AM 34.0°F1.1°C 20.8°F-6.2°C 58% 3.9 mph ESE6.3 kmh ESE 3.0 mph4.8 kmh 30.17 in1021.7 mb 0.00 in0.0 mm 0.00 in/hr0.0 mm/hr 0.00 in0.0 mm
06:12 AM 34.0°F1.1°C 21.2°F-6.0°C 59% 3.9 mph ESE6.3 kmh ESE 4.0 mph6.4 kmh 30.17 in1021.7 mb 0.00 in0.0 mm 0.00 in/hr0.0 mm/hr 0.00 in0.0 mm
06:14 AM 35.0°F1.7°C 22.2°F-5.4°C 59% 3.9 mph ESE6.3 kmh ESE 4.0 mph6.4 kmh 30.17 in1021.7 mb 0.00 in0.0 mm 0.00 in/hr0.0 mm/hr 0.00 in0.0 mm
06:16 AM 35.0°F1.7°C 21.8°F-5.7°C 58% 3.9 mph ESE6.3 kmh ESE 3.0 mph4.8 kmh 30.17 in1021.7 mb 0.00 in0.0 mm 0.00 in/hr0.0 mm/hr 0.00 in0.0 mm
06:18 AM 35.0°F1.7°C 21.8°F-5.7°C 58% 3.9 mph ESE6.3 kmh ESE 4.0 mph6.4 kmh 30.17 in1021.7 mb 0.00 in0.0 mm 0.00 in/hr0.0 mm/hr 0.00 in0.0 mm
06:20 AM 35.0°F1.7°C 21.8°F-5.7°C 58% 3.9 mph ESE6.3 kmh ESE 4.0 mph6.4 kmh 30.17 in1021.7 mb 0.00 in0.0 mm 0.00 in/hr0.0 mm/hr 0.00 in0.0 mm
06:22 AM 35.0°F1.7°C 21.8°F-5.7°C 58% 3.9 mph ESE6.3 kmh ESE 4.0 mph6.4 kmh 30.17 in1021.7 mb 0.00 in0.0 mm 0.00 in/hr0.0 mm/hr 0.00 in0.0 mm
06:24 AM 35.0°F1.7°C 21.8°F-5.7°C 58% 3.9 mph ESE6.3 kmh ESE 3.0 mph4.8 kmh 30.17 in1021.7 mb 0.00 in0.0 mm 0.00 in/hr0.0 mm/hr 0.00 in0.0 mm
06:26 AM 35.0°F1.7°C 21.3°F-5.9°C 57% 3.9 mph ESE6.3 kmh ESE 3.0 mph4.8 kmh 30.17 in1021.7 mb 0.00 in0.0 mm 0.00 in/hr0.0 mm/hr 0.00 in0.0 mm
06:28 AM 36.1°F2.3°C 21.9°F-5.6°C 56% 2.6 mph ESE4.2 kmh ESE 3.0 mph4.8 kmh 30.17 in1021.7 mb 0.00 in0.0 mm 0.00 in/hr0.0 mm/hr 0.00 in0.0 mm
06:30 AM 36.1°F2.3°C 22.3°F-5.4°C 57% 3.9 mph ESE6.3 kmh ESE 4.0 mph6.4 kmh 30.17 in1021.7 mb 0.00 in0.0 mm 0.00 in/hr0.0 mm/hr 0.00 in0.0 mm
06:32 AM 36.1°F2.3°C 22.3°F-5.4°C 57% 5.2 mph ESE8.4 kmh ESE 5.0 mph8.0 kmh 30.17 in1021.7 mb 0.00 in0.0 mm 0.00 in/hr0.0 mm/hr 0.00 in0.0 mm
06:34 AM 36.1°F2.3°C 21.9°F-5.6°C 56% 5.2 mph ESE8.4 kmh ESE 5.0 mph8.0 kmh 30.17 in1021.7 mb 0.00 in0.0 mm 0.00 in/hr0.0 mm/hr 0.00 in0.0 mm
06:36 AM 36.1°F2.3°C 21.9°F-5.6°C 56% 5.2 mph ESE8.4 kmh ESE 5.0 mph8.0 kmh 30.17 in1021.7 mb 0.00 in0.0 mm 0.00 in/hr0.0 mm/hr 0.00 in0.0 mm
06:38 AM 37.1°F2.8°C 22.9°F-5.1°C 56% 5.2 mph ESE8.4 kmh ESE 4.0 mph6.4 kmh 30.17 in1021.7 mb 0.00 in0.0 mm 0.00 in/hr0.0 mm/hr 0.00 in0.0 mm
06:40 AM 36.1°F2.3°C 21.9°F-5.6°C 56% 2.6 mph ESE4.2 kmh ESE 4.0 mph6.4 kmh 30.17 in1021.7 mb 0.00 in0.0 mm 0.00 in/hr0.0 mm/hr 0.00 in0.0 mm
06:42 AM 36.1°F2.3°C 21.5°F-5.8°C 55% 3.9 mph E6.3 kmh E 4.0 mph6.4 kmh 30.17 in1021.7 mb 0.00 in0.0 mm 0.00 in/hr0.0 mm/hr 0.00 in0.0 mm
06:44 AM 36.1°F2.3°C 21.5°F-5.8°C 55% 3.9 mph E6.3 kmh E 3.0 mph4.8 kmh 30.17 in1021.7 mb 0.00 in0.0 mm 0.00 in/hr0.0 mm/hr 0.00 in0.0 mm
06:46 AM 36.1°F2.3°C 21.9°F-5.6°C 56% Calm Calm 3.0 mph4.8 kmh 30.17 in1021.7 mb 0.00 in0.0 mm 0.00 in/hr0.0 mm/hr 0.00 in0.0 mm
06:48 AM 36.1°F2.3°C 21.9°F-5.6°C 56% 3.9 mph E6.3 kmh E 3.0 mph4.8 kmh 30.17 in1021.7 mb 0.00 in0.0 mm 0.00 in/hr0.0 mm/hr 0.00 in0.0 mm
06:50 AM 36.1°F2.3°C 21.9°F-5.6°C 56% 2.6 mph E4.2 kmh E 3.0 mph4.8 kmh 30.17 in1021.7 mb 0.00 in0.0 mm 0.00 in/hr0.0 mm/hr 0.00 in0.0 mm
06:52 AM 36.1°F2.3°C 21.9°F-5.6°C 56% 1.3 mph E2.1 kmh E 3.0 mph4.8 kmh 30.17 in1021.7 mb 0.00 in0.0 mm 0.00 in/hr0.0 mm/hr 0.00 in0.0 mm
06:54 AM 36.1°F2.3°C 21.9°F-5.6°C 56% 1.3 mph E2.1 kmh E 3.0 mph4.8 kmh 30.17 in1021.7 mb 0.00 in0.0 mm 0.00 in/hr0.0 mm/hr 0.00 in0.0 mm
06:56 AM 36.1°F2.3°C 21.9°F-5.6°C 56% Calm Calm 2.0 mph3.2 kmh 30.17 in1021.7 mb 0.00 in0.0 mm 0.00 in/hr0.0 mm/hr 0.00 in0.0 mm
06:58 AM 36.1°F2.3°C 21.9°F-5.6°C 56% Calm Calm 1.0 mph1.6 kmh 30.17 in1021.7 mb 0.00 in0.0 mm 0.00 in/hr0.0 mm/hr 0.00 in0.0 mm
07:00 AM 35.0°F1.7°C 20.9°F-6.2°C 56% Calm Calm 1.0 mph1.6 kmh 30.17 in1021.7 mb 0.00 in0.0 mm 0.00 in/hr0.0 mm/hr 0.00 in0.0 mm
07:02 AM 35.0°F1.7°C 21.3°F-5.9°C 57% 3.9 mph ENE6.3 kmh ENE 3.0 mph4.8 kmh 30.17 in1021.7 mb 0.00 in0.0 mm 0.00 in/hr0.0 mm/hr 0.00 in0.0 mm
07:04 AM 35.0°F1.7°C 21.3°F-5.9°C 57% 3.9 mph ENE6.3 kmh ENE 3.0 mph4.8 kmh 30.17 in1021.7 mb 0.00 in0.0 mm 0.00 in/hr0.0 mm/hr 0.00 in0.0 mm
07:06 AM 35.0°F1.7°C 21.8°F-5.7°C 58% 2.6 mph ENE4.2 kmh ENE 3.0 mph4.8 kmh 30.17 in1021.7 mb 0.00 in0.0 mm 0.00 in/hr0.0 mm/hr 0.00 in0.0 mm
07:08 AM 36.1°F2.3°C 22.7°F-5.2°C 58% Calm Calm 3.0 mph4.8 kmh 30.18 in1022.0 mb 0.00 in0.0 mm 0.00 in/hr0.0 mm/hr 0.00 in0.0 mm
07:10 AM 35.0°F1.7°C 21.8°F-5.7°C 58% Calm Calm 3.0 mph4.8 kmh 30.18 in1022.0 mb 0.00 in0.0 mm 0.00 in/hr0.0 mm/hr 0.00 in0.0 mm
07:12 AM 35.0°F1.7°C 21.8°F-5.7°C 58% Calm Calm 2.0 mph3.2 kmh 30.18 in1022.0 mb 0.00 in0.0 mm 0.00 in/hr0.0 mm/hr 0.00 in0.0 mm
07:14 AM 35.0°F1.7°C 21.3°F-5.9°C 57% Calm Calm -- 30.18 in1022.0 mb 0.00 in0.0 mm 0.00 in/hr0.0 mm/hr 0.00 in0.0 mm
07:16 AM 35.0°F1.7°C 21.8°F-5.7°C 58% Calm Calm -- 30.18 in1022.0 mb 0.00 in0.0 mm 0.00 in/hr0.0 mm/hr 0.00 in0.0 mm
07:18 AM 35.0°F1.7°C 21.8°F-5.7°C 58% Calm Calm -- 30.18 in1022.0 mb 0.00 in0.0 mm 0.00 in/hr0.0 mm/hr 0.00 in0.0 mm
07:20 AM 35.0°F1.7°C 21.8°F-5.7°C 58% Calm Calm -- 30.18 in1022.0 mb 0.00 in0.0 mm 0.00 in/hr0.0 mm/hr 0.00 in0.0 mm
07:22 AM 35.0°F1.7°C 21.8°F-5.7°C 58% Calm Calm -- 30.18 in1022.0 mb 0.00 in0.0 mm 0.00 in/hr0.0 mm/hr 0.00 in0.0 mm
07:24 AM 35.0°F1.7°C 21.8°F-5.7°C 58% Calm Calm -- 30.18 in1022.0 mb 0.00 in0.0 mm 0.00 in/hr0.0 mm/hr 0.00 in0.0 mm
07:26 AM 34.0°F1.1°C 20.8°F-6.2°C 58% Calm Calm -- 30.18 in1022.0 mb 0.00 in0.0 mm 0.00 in/hr0.0 mm/hr 0.00 in0.0 mm
07:28 AM 35.0°F1.7°C 21.8°F-5.7°C 58% Calm Calm -- 30.19 in1022.4 mb 0.00 in0.0 mm 0.00 in/hr0.0 mm/hr 0.00 in0.0 mm
07:30 AM 34.0°F1.1°C 20.8°F-6.2°C 58% 1.3 mph W2.1 kmh W 3.0 mph4.8 kmh 30.19 in1022.4 mb 0.00 in0.0 mm 0.00 in/hr0.0 mm/hr 0.00 in0.0 mm
07:32 AM 34.0°F1.1°C 21.2°F-6.0°C 59% Calm Calm 3.0 mph4.8 kmh 30.19 in1022.4 mb 0.00 in0.0 mm 0.00 in/hr0.0 mm/hr 0.00 in0.0 mm
07:34 AM 34.0°F1.1°C 21.2°F-6.0°C 59% Calm Calm 3.0 mph4.8 kmh 30.19 in1022.4 mb 0.00 in0.0 mm 0.00 in/hr0.0 mm/hr 0.00 in0.0 mm
07:36 AM 34.0°F1.1°C 21.6°F-5.8°C 60% Calm Calm 1.0 mph1.6 kmh 30.19 in1022.4 mb 0.00 in0.0 mm 0.00 in/hr0.0 mm/hr 0.00 in0.0 mm
07:38 AM 34.0°F1.1°C 21.6°F-5.8°C 60% Calm Calm -- 30.19 in1022.4 mb 0.00 in0.0 mm 0.00 in/hr0.0 mm/hr 0.00 in0.0 mm
07:40 AM 34.0°F1.1°C 21.6°F-5.8°C 60% Calm Calm -- 30.19 in1022.4 mb 0.00 in0.0 mm 0.00 in/hr0.0 mm/hr 0.00 in0.0 mm
07:42 AM 34.0°F1.1°C 21.6°F-5.8°C 60% Calm Calm -- 30.19 in1022.4 mb 0.00 in0.0 mm 0.00 in/hr0.0 mm/hr 0.00 in0.0 mm
07:44 AM 34.0°F1.1°C 21.6°F-5.8°C 60% Calm Calm -- 30.19 in1022.4 mb 0.00 in0.0 mm 0.00 in/hr0.0 mm/hr 0.00 in0.0 mm
07:46 AM 34.0°F1.1°C 21.6°F-5.8°C 60% 1.3 mph W2.1 kmh W 2.0 mph3.2 kmh 30.19 in1022.4 mb 0.00 in0.0 mm 0.00 in/hr0.0 mm/hr 0.00 in0.0 mm
07:48 AM 34.0°F1.1°C 21.6°F-5.8°C 60% 1.3 mph W2.1 kmh W 2.0 mph3.2 kmh 30.19 in1022.4 mb 0.00 in0.0 mm 0.00 in/hr0.0 mm/hr 0.00 in0.0 mm
07:50 AM 34.0°F1.1°C 22.0°F-5.6°C 61% Calm Calm 2.0 mph3.2 kmh 30.19 in1022.4 mb 0.00 in0.0 mm 0.00 in/hr0.0 mm/hr 0.00 in0.0 mm
07:52 AM 34.0°F1.1°C 22.0°F-5.6°C 61% 1.3 mph W2.1 kmh W 2.0 mph3.2 kmh 30.19 in1022.4 mb 0.00 in0.0 mm 0.00 in/hr0.0 mm/hr 0.00 in0.0 mm
07:54 AM 34.0°F1.1°C 22.0°F-5.6°C 61% 1.3 mph W2.1 kmh W 2.0 mph3.2 kmh 30.19 in1022.4 mb 0.00 in0.0 mm 0.00 in/hr0.0 mm/hr 0.00 in0.0 mm
07:56 AM 34.0°F1.1°C 22.0°F-5.6°C 61% Calm Calm 2.0 mph3.2 kmh 30.19 in1022.4 mb 0.00 in0.0 mm 0.00 in/hr0.0 mm/hr 0.00 in0.0 mm
07:58 AM 34.0°F1.1°C 22.0°F-5.6°C 61% 1.3 mph W2.1 kmh W 2.0 mph3.2 kmh 30.20 in1022.7 mb 0.00 in0.0 mm 0.00 in/hr0.0 mm/hr 0.00 in0.0 mm
08:00 AM 34.0°F1.1°C 22.0°F-5.6°C 61% Calm Calm 1.0 mph1.6 kmh 30.20 in1022.7 mb 0.00 in0.0 mm 0.00 in/hr0.0 mm/hr 0.00 in0.0 mm
08:02 AM 34.0°F1.1°C 22.0°F-5.6°C 61% Calm Calm 1.0 mph1.6 kmh 30.20 in1022.7 mb 0.00 in0.0 mm 0.00 in/hr0.0 mm/hr 0.00 in0.0 mm
08:04 AM 33.0°F0.6°C 20.6°F-6.3°C 60% 3.9 mph W6.3 kmh W 3.0 mph4.8 kmh 30.20 in1022.7 mb 0.00 in0.0 mm 0.00 in/hr0.0 mm/hr 0.00 in0.0 mm
08:06 AM 33.0°F0.6°C 21.0°F-6.1°C 61% 2.6 mph W4.2 kmh W 3.0 mph4.8 kmh 30.20 in1022.7 mb 0.00 in0.0 mm 0.00 in/hr0.0 mm/hr 0.00 in0.0 mm
08:08 AM 33.0°F0.6°C 21.4°F-5.9°C 62% Calm Calm 3.0 mph4.8 kmh 30.20 in1022.7 mb 0.00 in0.0 mm 0.00 in/hr0.0 mm/hr 0.00 in0.0 mm
08:10 AM 33.0°F0.6°C 21.4°F-5.9°C 62% 1.3 mph W2.1 kmh W 3.0 mph4.8 kmh 30.20 in1022.7 mb 0.00 in0.0 mm 0.00 in/hr0.0 mm/hr 0.00 in0.0 mm
08:12 AM 33.0°F0.6°C 21.4°F-5.9°C 62% 2.6 mph W4.2 kmh W 2.0 mph3.2 kmh 30.20 in1022.7 mb 0.00 in0.0 mm 0.00 in/hr0.0 mm/hr 0.00 in0.0 mm
08:14 AM 33.0°F0.6°C 21.8°F-5.7°C 63% 2.6 mph W4.2 kmh W 3.0 mph4.8 kmh 30.20 in1022.7 mb 0.00 in0.0 mm 0.00 in/hr0.0 mm/hr 0.00 in0.0 mm
08:16 AM 33.0°F0.6°C 21.8°F-5.7°C 63% 3.9 mph W6.3 kmh W 3.0 mph4.8 kmh 30.20 in1022.7 mb 0.00 in0.0 mm 0.00 in/hr0.0 mm/hr 0.00 in0.0 mm
08:18 AM 33.0°F0.6°C 21.8°F-5.7°C 63% 3.9 mph W6.3 kmh W 4.0 mph6.4 kmh 30.21 in1023.0 mb 0.00 in0.0 mm 0.00 in/hr0.0 mm/hr 0.00 in0.0 mm
08:20 AM 31.9°F-0.1°C 20.8°F-6.2°C 63% 5.2 mph WNW8.4 kmh WNW 5.0 mph8.0 kmh 30.21 in1023.0 mb 0.00 in0.0 mm 0.00 in/hr0.0 mm/hr 0.00 in0.0 mm
08:22 AM 31.9°F-0.1°C 20.8°F-6.2°C 63% 5.2 mph NW8.4 kmh NW 5.0 mph8.0 kmh 30.21 in1023.0 mb 0.00 in0.0 mm 0.00 in/hr0.0 mm/hr 0.00 in0.0 mm
08:24 AM 31.9°F-0.1°C 21.5°F-5.8°C 65% 5.2 mph NW8.4 kmh NW 5.0 mph8.0 kmh 30.21 in1023.0 mb 0.00 in0.0 mm 0.00 in/hr0.0 mm/hr 0.00 in0.0 mm
08:26 AM 33.0°F0.6°C 22.5°F-5.3°C 65% 3.9 mph NW6.3 kmh NW 4.0 mph6.4 kmh 30.21 in1023.0 mb 0.00 in0.0 mm 0.00 in/hr0.0 mm/hr 0.00 in0.0 mm
08:28 AM 33.0°F0.6°C 22.1°F-5.5°C 64% 5.2 mph NW8.4 kmh NW 4.0 mph6.4 kmh 30.22 in1023.4 mb 0.00 in0.0 mm 0.00 in/hr0.0 mm/hr 0.00 in0.0 mm
08:30 AM 33.0°F0.6°C 22.1°F-5.5°C 64% 5.2 mph NW8.4 kmh NW 4.0 mph6.4 kmh 30.22 in1023.4 mb 0.00 in0.0 mm 0.00 in/hr0.0 mm/hr 0.00 in0.0 mm
08:32 AM 33.0°F0.6°C 21.8°F-5.7°C 63% 6.5 mph NW10.5 kmh NW 5.0 mph8.0 kmh 30.22 in1023.4 mb 0.00 in0.0 mm 0.00 in/hr0.0 mm/hr 0.00 in0.0 mm
08:34 AM 31.9°F-0.1°C 20.8°F-6.2°C 63% 6.5 mph NW10.5 kmh NW 5.0 mph8.0 kmh 30.22 in1023.4 mb 0.00 in0.0 mm 0.00 in/hr0.0 mm/hr 0.00 in0.0 mm
08:36 AM 31.9°F-0.1°C 21.2°F-6.0°C 64% 1.3 mph NW2.1 kmh NW 5.0 mph8.0 kmh 30.22 in1023.4 mb 0.00 in0.0 mm 0.00 in/hr0.0 mm/hr 0.00 in0.0 mm
08:38 AM 31.9°F-0.1°C 20.8°F-6.2°C 63% 5.2 mph NW8.4 kmh NW 5.0 mph8.0 kmh 30.23 in1023.7 mb 0.00 in0.0 mm 0.00 in/hr0.0 mm/hr 0.00 in0.0 mm
08:40 AM 31.9°F-0.1°C 20.8°F-6.2°C 63% 5.2 mph NW8.4 kmh NW 5.0 mph8.0 kmh 30.23 in1023.7 mb 0.00 in0.0 mm 0.00 in/hr0.0 mm/hr 0.00 in0.0 mm
08:42 AM 30.9°F-0.6°C 19.8°F-6.8°C 63% 2.6 mph NW4.2 kmh NW 5.0 mph8.0 kmh 30.23 in1023.7 mb 0.00 in0.0 mm 0.00 in/hr0.0 mm/hr 0.00 in0.0 mm
08:44 AM 30.9°F-0.6°C 19.8°F-6.8°C 63% 3.9 mph NNW6.3 kmh NNW 5.0 mph8.0 kmh 30.23 in1023.7 mb 0.00 in0.0 mm 0.00 in/hr0.0 mm/hr 0.00 in0.0 mm
08:46 AM 30.9°F-0.6°C 19.8°F-6.8°C 63% 2.6 mph NNW4.2 kmh NNW 4.0 mph6.4 kmh 30.23 in1023.7 mb 0.00 in0.0 mm 0.00 in/hr0.0 mm/hr 0.00 in0.0 mm
08:48 AM 30.9°F-0.6°C 19.8°F-6.8°C 63% 2.6 mph NNW4.2 kmh NNW 4.0 mph6.4 kmh 30.23 in1023.7 mb 0.00 in0.0 mm 0.00 in/hr0.0 mm/hr 0.00 in0.0 mm
08:50 AM 29.9°F-1.2°C 19.2°F-7.1°C 64% 3.9 mph NNW6.3 kmh NNW 3.0 mph4.8 kmh 30.23 in1023.7 mb 0.00 in0.0 mm 0.00 in/hr0.0 mm/hr 0.00 in0.0 mm
08:52 AM 29.9°F-1.2°C 19.2°F-7.1°C 64% 2.6 mph NNW4.2 kmh NNW 4.0 mph6.4 kmh 30.23 in1023.7 mb 0.00 in0.0 mm 0.00 in/hr0.0 mm/hr 0.00 in0.0 mm
08:54 AM 29.9°F-1.2°C 19.6°F-6.9°C 65% 5.2 mph NW8.4 kmh NW 5.0 mph8.0 kmh 30.23 in1023.7 mb 0.00 in0.0 mm 0.00 in/hr0.0 mm/hr 0.00 in0.0 mm
08:56 AM 29.9°F-1.2°C 19.6°F-6.9°C 65% 6.5 mph NW10.5 kmh NW 5.0 mph8.0 kmh 30.23 in1023.7 mb 0.00 in0.0 mm 0.00 in/hr0.0 mm/hr 0.00 in0.0 mm
08:58 AM 29.9°F-1.2°C 19.6°F-6.9°C 65% 5.2 mph NW8.4 kmh NW 5.0 mph8.0 kmh 30.25 in1024.4 mb 0.00 in0.0 mm 0.00 in/hr0.0 mm/hr 0.00 in0.0 mm
09:00 AM 29.9°F-1.2°C 19.9°F-6.7°C 66% 5.2 mph NW8.4 kmh NW 5.0 mph8.0 kmh 30.25 in1024.4 mb 0.00 in0.0 mm 0.00 in/hr0.0 mm/hr 0.00 in0.0 mm
09:02 AM 29.9°F-1.2°C 19.9°F-6.7°C 66% 5.2 mph NW8.4 kmh NW 5.0 mph8.0 kmh 30.25 in1024.4 mb 0.00 in0.0 mm 0.00 in/hr0.0 mm/hr 0.00 in0.0 mm
09:04 AM 29.9°F-1.2°C 19.9°F-6.7°C 66% 5.2 mph NW8.4 kmh NW 5.0 mph8.0 kmh 30.25 in1024.4 mb 0.00 in0.0 mm 0.00 in/hr0.0 mm/hr 0.00 in0.0 mm
09:06 AM 29.9°F-1.2°C 20.3°F-6.5°C 67% 5.2 mph NW8.4 kmh NW 5.0 mph8.0 kmh 30.25 in1024.4 mb 0.00 in0.0 mm 0.00 in/hr0.0 mm/hr 0.00 in0.0 mm
09:08 AM 29.9°F-1.2°C 19.9°F-6.7°C 66% 6.5 mph NW10.5 kmh NW 5.0 mph8.0 kmh 30.25 in1024.4 mb 0.00 in0.0 mm 0.00 in/hr0.0 mm/hr 0.00 in0.0 mm
09:10 AM 29.9°F-1.2°C 20.3°F-6.5°C 67% 6.5 mph NW10.5 kmh NW 5.0 mph8.0 kmh 30.25 in1024.4 mb 0.00 in0.0 mm 0.00 in/hr0.0 mm/hr 0.00 in0.0 mm
09:12 AM 29.9°F-1.2°C 20.3°F-6.5°C 67% 3.9 mph NNW6.3 kmh NNW 5.0 mph8.0 kmh 30.25 in1024.4 mb 0.00 in0.0 mm 0.00 in/hr0.0 mm/hr 0.00 in0.0 mm
09:14 AM 29.9°F-1.2°C 20.3°F-6.5°C 67% 7.8 mph NW12.6 kmh NW 7.0 mph11.3 kmh 30.25 in1024.4 mb 0.00 in0.0 mm 0.00 in/hr0.0 mm/hr 0.00 in0.0 mm
09:16 AM 29.9°F-1.2°C 20.3°F-6.5°C 67% 6.5 mph NW10.5 kmh NW 7.0 mph11.3 kmh 30.25 in1024.4 mb 0.00 in0.0 mm 0.00 in/hr0.0 mm/hr 0.00 in0.0 mm
09:18 AM 29.9°F-1.2°C 19.9°F-6.7°C 66% 5.2 mph NW8.4 kmh NW 7.0 mph11.3 kmh 30.24 in1024.0 mb 0.00 in0.0 mm 0.00 in/hr0.0 mm/hr 0.00 in0.0 mm
09:20 AM 29.9°F-1.2°C 19.6°F-6.9°C 65% 3.9 mph NW6.3 kmh NW 7.0 mph11.3 kmh 30.24 in1024.0 mb 0.00 in0.0 mm 0.00 in/hr0.0 mm/hr 0.00 in0.0 mm
09:22 AM 29.9°F-1.2°C 19.6°F-6.9°C 65% 5.2 mph NW8.4 kmh NW 5.0 mph8.0 kmh 30.24 in1024.0 mb 0.00 in0.0 mm 0.00 in/hr0.0 mm/hr 0.00 in0.0 mm
09:24 AM 29.9°F-1.2°C 19.6°F-6.9°C 65% 5.2 mph WNW8.4 kmh WNW 5.0 mph8.0 kmh 30.24 in1024.0 mb 0.00 in0.0 mm 0.00 in/hr0.0 mm/hr 0.00 in0.0 mm
09:26 AM 29.9°F-1.2°C 19.9°F-6.7°C 66% 5.2 mph WNW8.4 kmh WNW 5.0 mph8.0 kmh 30.24 in1024.0 mb 0.00 in0.0 mm 0.00 in/hr0.0 mm/hr 0.00 in0.0 mm
09:28 AM 29.9°F-1.2°C 19.9°F-6.7°C 66% 3.9 mph WNW6.3 kmh WNW 5.0 mph8.0 kmh 30.23 in1023.7 mb 0.00 in0.0 mm 0.00 in/hr0.0 mm/hr 0.00 in0.0 mm
09:30 AM 29.9°F-1.2°C 20.3°F-6.5°C 67% 3.9 mph WNW6.3 kmh WNW 5.0 mph8.0 kmh 30.23 in1023.7 mb 0.00 in0.0 mm 0.00 in/hr0.0 mm/hr 0.00 in0.0 mm
09:32 AM 29.9°F-1.2°C 20.3°F-6.5°C 67% 2.6 mph WNW4.2 kmh WNW 4.0 mph6.4 kmh 30.23 in1023.7 mb 0.00 in0.0 mm 0.00 in/hr0.0 mm/hr 0.00 in0.0 mm
09:34 AM 29.9°F-1.2°C 20.3°F-6.5°C 67% Calm Calm 4.0 mph6.4 kmh 30.23 in1023.7 mb 0.00 in0.0 mm 0.00 in/hr0.0 mm/hr 0.00 in0.0 mm
09:36 AM 30.9°F-0.6°C 21.3°F-5.9°C 67% 1.3 mph WNW2.1 kmh WNW 3.0 mph4.8 kmh 30.23 in1023.7 mb 0.00 in0.0 mm 0.00 in/hr0.0 mm/hr 0.00 in0.0 mm
09:38 AM 31.9°F-0.1°C 22.2°F-5.4°C 67% 3.9 mph NW6.3 kmh NW 3.0 mph4.8 kmh 30.22 in1023.4 mb 0.00 in0.0 mm 0.00 in/hr0.0 mm/hr 0.00 in0.0 mm
09:40 AM 31.9°F-0.1°C 22.2°F-5.4°C 67% 5.2 mph NW8.4 kmh NW 5.0 mph8.0 kmh 30.22 in1023.4 mb 0.00 in0.0 mm 0.00 in/hr0.0 mm/hr 0.00 in0.0 mm
09:42 AM 31.9°F-0.1°C 21.5°F-5.8°C 65% 3.9 mph NW6.3 kmh NW 6.0 mph9.7 kmh 30.22 in1023.4 mb 0.00 in0.0 mm 0.00 in/hr0.0 mm/hr 0.00 in0.0 mm
09:44 AM 33.0°F0.6°C 22.5°F-5.3°C 65% 3.9 mph NW6.3 kmh NW 6.0 mph9.7 kmh 30.22 in1023.4 mb 0.00 in0.0 mm 0.00 in/hr0.0 mm/hr 0.00 in0.0 mm
09:46 AM 33.0°F0.6°C 22.5°F-5.3°C 65% 3.9 mph NW6.3 kmh NW 5.0 mph8.0 kmh 30.22 in1023.4 mb 0.00 in0.0 mm 0.00 in/hr0.0 mm/hr 0.00 in0.0 mm
09:48 AM 34.0°F1.1°C 23.1°F-4.9°C 64% 3.9 mph NW6.3 kmh NW 4.0 mph6.4 kmh 30.21 in1023.0 mb 0.00 in0.0 mm 0.00 in/hr0.0 mm/hr 0.00 in0.0 mm
09:50 AM 34.0°F1.1°C 23.1°F-4.9°C 64% 5.2 mph NW8.4 kmh NW 5.0 mph8.0 kmh 30.21 in1023.0 mb 0.00 in0.0 mm 0.00 in/hr0.0 mm/hr 0.00 in0.0 mm
09:52 AM 34.0°F1.1°C 22.7°F-5.2°C 63% 6.5 mph NW10.5 kmh NW 5.0 mph8.0 kmh 30.21 in1023.0 mb 0.00 in0.0 mm 0.00 in/hr0.0 mm/hr 0.00 in0.0 mm
09:54 AM 35.0°F1.7°C 23.3°F-4.8°C 62% 5.2 mph NW8.4 kmh NW 7.0 mph11.3 kmh 30.21 in1023.0 mb 0.00 in0.0 mm 0.00 in/hr0.0 mm/hr 0.00 in0.0 mm
09:56 AM 35.0°F1.7°C 22.9°F-5.1°C 61% 5.2 mph NW8.4 kmh NW 7.0 mph11.3 kmh 30.21 in1023.0 mb 0.00 in0.0 mm 0.00 in/hr0.0 mm/hr 0.00 in0.0 mm
09:58 AM 36.1°F2.3°C 23.9°F-4.5°C 61% 6.5 mph NW10.5 kmh NW 6.0 mph9.7 kmh 30.21 in1023.0 mb 0.00 in0.0 mm 0.00 in/hr0.0 mm/hr 0.00 in0.0 mm
10:00 AM 36.1°F2.3°C 23.9°F-4.5°C 61% 5.2 mph NW8.4 kmh NW 5.0 mph8.0 kmh 30.21 in1023.0 mb 0.00 in0.0 mm 0.00 in/hr0.0 mm/hr 0.00 in0.0 mm
10:02 AM 36.1°F2.3°C 23.5°F-4.7°C 60% 6.5 mph NW10.5 kmh NW 5.0 mph8.0 kmh 30.21 in1023.0 mb 0.00 in0.0 mm 0.00 in/hr0.0 mm/hr 0.00 in0.0 mm
10:04 AM 37.1°F2.8°C 24.1°F-4.4°C 59% 6.5 mph NW10.5 kmh NW 6.0 mph9.7 kmh 30.21 in1023.0 mb 0.00 in0.0 mm 0.00 in/hr0.0 mm/hr 0.00 in0.0 mm
10:06 AM 37.1°F2.8°C 23.7°F-4.6°C 58% 7.8 mph NW12.6 kmh NW 6.0 mph9.7 kmh 30.21 in1023.0 mb 0.00 in0.0 mm 0.00 in/hr0.0 mm/hr 0.00 in0.0 mm
10:08 AM 37.1°F2.8°C 23.7°F-4.6°C 58% 6.5 mph NW10.5 kmh NW 6.0 mph9.7 kmh 30.20 in1022.7 mb 0.00 in0.0 mm 0.00 in/hr0.0 mm/hr 0.00 in0.0 mm
10:10 AM 37.1°F2.8°C 23.3°F-4.8°C 57% 6.5 mph NW10.5 kmh NW 6.0 mph9.7 kmh 30.20 in1022.7 mb 0.00 in0.0 mm 0.00 in/hr0.0 mm/hr 0.00 in0.0 mm
10:12 AM 37.1°F2.8°C 23.3°F-4.8°C 57% 7.8 mph NW12.6 kmh NW 6.0 mph9.7 kmh 30.20 in1022.7 mb 0.00 in0.0 mm 0.00 in/hr0.0 mm/hr 0.00 in0.0 mm
10:14 AM 37.1°F2.8°C 22.9°F-5.1°C 56% 5.2 mph NW8.4 kmh NW 6.0 mph9.7 kmh 30.20 in1022.7 mb 0.00 in0.0 mm 0.00 in/hr0.0 mm/hr 0.00 in0.0 mm
10:16 AM 37.1°F2.8°C 22.9°F-5.1°C 56% 5.2 mph NW8.4 kmh NW 6.0 mph9.7 kmh 30.20 in1022.7 mb 0.00 in0.0 mm 0.00 in/hr0.0 mm/hr 0.00 in0.0 mm
10:18 AM 38.1°F3.4°C 23.8°F-4.6°C 56% 2.6 mph NW4.2 kmh NW 6.0 mph9.7 kmh 30.21 in1023.0 mb 0.00 in0.0 mm 0.00 in/hr0.0 mm/hr 0.00 in0.0 mm
10:20 AM 38.1°F3.4°C 24.2°F-4.3°C 57% 2.6 mph NW4.2 kmh NW 4.0 mph6.4 kmh 30.21 in1023.0 mb 0.00 in0.0 mm 0.00 in/hr0.0 mm/hr 0.00 in0.0 mm
10:22 AM 38.1°F3.4°C 23.8°F-4.6°C 56% 2.6 mph NW4.2 kmh NW 4.0 mph6.4 kmh 30.21 in1023.0 mb 0.00 in0.0 mm 0.00 in/hr0.0 mm/hr 0.00 in0.0 mm
10:24 AM 39.1°F3.9°C 24.8°F-4.0°C 56% 3.9 mph NW6.3 kmh NW 3.0 mph4.8 kmh 30.21 in1023.0 mb 0.00 in0.0 mm 0.00 in/hr0.0 mm/hr 0.00 in0.0 mm
10:26 AM 39.1°F3.9°C 24.8°F-4.0°C 56% 2.6 mph NW4.2 kmh NW 3.0 mph4.8 kmh 30.21 in1023.0 mb 0.00 in0.0 mm 0.00 in/hr0.0 mm/hr 0.00 in0.0 mm
10:28 AM 40.2°F4.6°C 25.3°F-3.7°C 55% 3.9 mph NW6.3 kmh NW 4.0 mph6.4 kmh 30.19 in1022.4 mb 0.00 in0.0 mm 0.00 in/hr0.0 mm/hr 0.00 in0.0 mm
10:30 AM 41.2°F5.1°C 25.8°F-3.4°C 54% 5.2 mph NW8.4 kmh NW 4.0 mph6.4 kmh 30.19 in1022.4 mb 0.00 in0.0 mm 0.00 in/hr0.0 mm/hr 0.00 in0.0 mm
10:32 AM 41.2°F5.1°C 25.8°F-3.4°C 54% 3.9 mph NW6.3 kmh NW 4.0 mph6.4 kmh 30.19 in1022.4 mb 0.00 in0.0 mm 0.00 in/hr0.0 mm/hr 0.00 in0.0 mm
10:34 AM 42.2°F5.7°C 25.9°F-3.4°C 52% 3.9 mph NW6.3 kmh NW 4.0 mph6.4 kmh 30.19 in1022.4 mb 0.00 in0.0 mm 0.00 in/hr0.0 mm/hr 0.00 in0.0 mm
10:36 AM 42.2°F5.7°C 25.4°F-3.7°C 51% Calm Calm 4.0 mph6.4 kmh 30.19 in1022.4 mb 0.00 in0.0 mm 0.00 in/hr0.0 mm/hr 0.00 in0.0 mm
10:38 AM 43.3°F6.3°C 25.9°F-3.4°C 50% Calm Calm 4.0 mph6.4 kmh 30.17 in1021.7 mb 0.00 in0.0 mm 0.00 in/hr0.0 mm/hr 0.00 in0.0 mm
10:40 AM 44.3°F6.8°C 26.4°F-3.1°C 49% Calm Calm 2.0 mph3.2 kmh 30.17 in1021.7 mb 0.00 in0.0 mm 0.00 in/hr0.0 mm/hr 0.00 in0.0 mm
10:42 AM 45.3°F7.4°C 28.8°F-1.8°C 52% Calm Calm 1.0 mph1.6 kmh 30.17 in1021.7 mb 0.00 in0.0 mm 0.00 in/hr0.0 mm/hr 0.00 in0.0 mm
10:44 AM 46.4°F8.0°C 27.8°F-2.3°C 48% 2.6 mph SSE4.2 kmh SSE 3.0 mph4.8 kmh 30.17 in1021.7 mb 0.00 in0.0 mm 0.00 in/hr0.0 mm/hr 0.00 in0.0 mm
10:46 AM 46.4°F8.0°C 28.7°F-1.8°C 50% 2.6 mph SSE4.2 kmh SSE 3.0 mph4.8 kmh 30.17 in1021.7 mb 0.00 in0.0 mm 0.00 in/hr0.0 mm/hr 0.00 in0.0 mm
10:48 AM 47.4°F8.6°C 27.7°F-2.4°C 46% 5.2 mph SE8.4 kmh SE 5.0 mph8.0 kmh 30.16 in1021.3 mb 0.00 in0.0 mm 0.00 in/hr0.0 mm/hr 0.00 in0.0 mm
10:50 AM 47.4°F8.6°C 27.1°F-2.7°C 45% 5.2 mph SE8.4 kmh SE 5.0 mph8.0 kmh 30.16 in1021.3 mb 0.00 in0.0 mm 0.00 in/hr0.0 mm/hr 0.00 in0.0 mm
10:52 AM 47.4°F8.6°C 27.1°F-2.7°C 45% 3.9 mph E6.3 kmh E 5.0 mph8.0 kmh 30.16 in1021.3 mb 0.00 in0.0 mm 0.00 in/hr0.0 mm/hr 0.00 in0.0 mm
10:54 AM 48.4°F9.1°C 27.0°F-2.8°C 43% 5.2 mph E8.4 kmh E 5.0 mph8.0 kmh 30.16 in1021.3 mb 0.00 in0.0 mm 0.00 in/hr0.0 mm/hr 0.00 in0.0 mm
10:56 AM 48.4°F9.1°C 27.5°F-2.5°C 44% 3.9 mph E6.3 kmh E 5.0 mph8.0 kmh 30.16 in1021.3 mb 0.00 in0.0 mm 0.00 in/hr0.0 mm/hr 0.00 in0.0 mm
10:58 AM 49.4°F9.7°C 27.9°F-2.3°C 43% 5.2 mph ESE8.4 kmh ESE 6.0 mph9.7 kmh 30.14 in1020.7 mb 0.00 in0.0 mm 0.00 in/hr0.0 mm/hr 0.00 in0.0 mm
11:00 AM 49.4°F9.7°C 27.9°F-2.3°C 43% 3.9 mph SE6.3 kmh SE 6.0 mph9.7 kmh 30.14 in1020.7 mb 0.00 in0.0 mm 0.00 in/hr0.0 mm/hr 0.00 in0.0 mm
11:02 AM 49.4°F9.7°C 27.9°F-2.3°C 43% 5.2 mph SE8.4 kmh SE 6.0 mph9.7 kmh 30.14 in1020.7 mb 0.00 in0.0 mm 0.00 in/hr0.0 mm/hr 0.00 in0.0 mm
11:04 AM 50.5°F10.3°C 28.8°F-1.8°C 43% 5.2 mph SE8.4 kmh SE 5.0 mph8.0 kmh 30.14 in1020.7 mb 0.00 in0.0 mm 0.00 in/hr0.0 mm/hr 0.00 in0.0 mm
11:06 AM 50.5°F10.3°C 28.3°F-2.1°C 42% 6.5 mph ESE10.5 kmh ESE 7.0 mph11.3 kmh 30.14 in1020.7 mb 0.00 in0.0 mm 0.00 in/hr0.0 mm/hr 0.00 in0.0 mm
11:08 AM 51.5°F10.8°C 29.2°F-1.6°C 42% 3.9 mph ESE6.3 kmh ESE 7.0 mph11.3 kmh 30.13 in1020.3 mb 0.00 in0.0 mm 0.00 in/hr0.0 mm/hr 0.00 in0.0 mm
11:10 AM 51.5°F10.8°C 29.2°F-1.6°C 42% 6.5 mph ESE10.5 kmh ESE 7.0 mph11.3 kmh 30.13 in1020.3 mb 0.00 in0.0 mm 0.00 in/hr0.0 mm/hr 0.00 in0.0 mm
11:12 AM 51.5°F10.8°C 29.2°F-1.6°C 42% 3.9 mph S6.3 kmh S 6.0 mph9.7 kmh 30.13 in1020.3 mb 0.00 in0.0 mm 0.00 in/hr0.0 mm/hr 0.00 in0.0 mm
11:14 AM 51.5°F10.8°C 29.2°F-1.6°C 42% 6.5 mph ESE10.5 kmh ESE 6.0 mph9.7 kmh 30.13 in1020.3 mb 0.00 in0.0 mm 0.00 in/hr0.0 mm/hr 0.00 in0.0 mm
11:16 AM 51.5°F10.8°C 29.2°F-1.6°C 42% 6.5 mph ESE10.5 kmh ESE 7.0 mph11.3 kmh 30.13 in1020.3 mb 0.00 in0.0 mm 0.00 in/hr0.0 mm/hr 0.00 in0.0 mm
11:18 AM 52.5°F11.4°C 30.1°F-1.1°C 42% 5.2 mph SSE8.4 kmh SSE 7.0 mph11.3 kmh 30.13 in1020.3 mb 0.00 in0.0 mm 0.00 in/hr0.0 mm/hr 0.00 in0.0 mm
11:20 AM 52.5°F11.4°C 30.1°F-1.1°C 42% 6.5 mph SE10.5 kmh SE 9.0 mph14.5 kmh 30.13 in1020.3 mb 0.00 in0.0 mm 0.00 in/hr0.0 mm/hr 0.00 in0.0 mm
11:22 AM 52.5°F11.4°C 29.5°F-1.4°C 41% 13.0 mph SE20.9 kmh SE 10.0 mph16.1 kmh 30.13 in1020.3 mb 0.00 in0.0 mm 0.00 in/hr0.0 mm/hr 0.00 in0.0 mm
11:24 AM 52.5°F11.4°C 30.1°F-1.1°C 42% 6.5 mph S10.5 kmh S 10.0 mph16.1 kmh 30.13 in1020.3 mb 0.00 in0.0 mm 0.00 in/hr0.0 mm/hr 0.00 in0.0 mm
11:26 AM 53.6°F12.0°C 31.1°F-0.5°C 42% 7.8 mph ESE12.6 kmh ESE 10.0 mph16.1 kmh 30.13 in1020.3 mb 0.00 in0.0 mm 0.00 in/hr0.0 mm/hr 0.00 in0.0 mm
11:28 AM 54.6°F12.6°C 31.4°F-0.3°C 41% 5.2 mph SE8.4 kmh SE 8.0 mph12.9 kmh 30.13 in1020.3 mb 0.00 in0.0 mm 0.00 in/hr0.0 mm/hr 0.00 in0.0 mm
11:30 AM 53.6°F12.0°C 30.5°F-0.8°C 41% 5.2 mph SSE8.4 kmh SSE 10.0 mph16.1 kmh 30.13 in1020.3 mb 0.00 in0.0 mm 0.00 in/hr0.0 mm/hr 0.00 in0.0 mm
11:32 AM 53.6°F12.0°C 30.5°F-0.8°C 41% 7.8 mph SSE12.6 kmh SSE 10.0 mph16.1 kmh 30.13 in1020.3 mb 0.00 in0.0 mm 0.00 in/hr0.0 mm/hr 0.00 in0.0 mm
11:34 AM 54.6°F12.6°C 31.4°F-0.3°C 41% 3.9 mph ESE6.3 kmh ESE 10.0 mph16.1 kmh 30.13 in1020.3 mb 0.00 in0.0 mm 0.00 in/hr0.0 mm/hr 0.00 in0.0 mm
11:36 AM 54.6°F12.6°C 31.4°F-0.3°C 41% 11.7 mph ESE18.8 kmh ESE 10.0 mph16.1 kmh 30.13 in1020.3 mb 0.00 in0.0 mm 0.00 in/hr0.0 mm/hr 0.00 in0.0 mm
11:38 AM 54.6°F12.6°C 31.4°F-0.3°C 41% 7.8 mph S12.6 kmh S 10.0 mph16.1 kmh 30.13 in1020.3 mb 0.00 in0.0 mm 0.00 in/hr0.0 mm/hr 0.00 in0.0 mm
11:40 AM 55.6°F13.1°C 32.3°F0.2°C 41% 6.5 mph SE10.5 kmh SE 9.0 mph14.5 kmh 30.13 in1020.3 mb 0.00 in0.0 mm 0.00 in/hr0.0 mm/hr 0.00 in0.0 mm
11:42 AM 55.6°F13.1°C 31.1°F-0.5°C 39% 6.5 mph S10.5 kmh S 10.0 mph16.1 kmh 30.13 in1020.3 mb 0.00 in0.0 mm 0.00 in/hr0.0 mm/hr 0.00 in0.0 mm
11:44 AM 55.6°F13.1°C 31.1°F-0.5°C 39% 7.8 mph SSE12.6 kmh SSE 10.0 mph16.1 kmh 30.13 in1020.3 mb 0.00 in0.0 mm 0.00 in/hr0.0 mm/hr 0.00 in0.0 mm
11:46 AM 55.6°F13.1°C 31.1°F-0.5°C 39% 5.2 mph SSE8.4 kmh SSE 10.0 mph16.1 kmh 30.13 in1020.3 mb 0.00 in0.0 mm 0.00 in/hr0.0 mm/hr 0.00 in0.0 mm
11:48 AM 56.7°F13.7°C 31.4°F-0.3°C 38% 5.2 mph SSE8.4 kmh SSE 9.0 mph14.5 kmh 30.11 in1019.6 mb 0.00 in0.0 mm 0.00 in/hr0.0 mm/hr 0.00 in0.0 mm
11:50 AM 56.7°F13.7°C 31.4°F-0.3°C 38% 6.5 mph SE10.5 kmh SE 9.0 mph14.5 kmh 30.11 in1019.6 mb 0.00 in0.0 mm 0.00 in/hr0.0 mm/hr 0.00 in0.0 mm
11:52 AM 56.7°F13.7°C 31.4°F-0.3°C 38% 9.1 mph S14.6 kmh S 8.0 mph12.9 kmh 30.11 in1019.6 mb 0.00 in0.0 mm 0.00 in/hr0.0 mm/hr 0.00 in0.0 mm
11:54 AM 56.7°F13.7°C 31.4°F-0.3°C 38% 9.1 mph ESE14.6 kmh ESE 12.0 mph19.3 kmh 30.11 in1019.6 mb 0.00 in0.0 mm 0.00 in/hr0.0 mm/hr 0.00 in0.0 mm
11:56 AM 55.6°F13.1°C 30.4°F-0.9°C 38% 7.8 mph SE12.6 kmh SE 12.0 mph19.3 kmh 30.11 in1019.6 mb 0.00 in0.0 mm 0.00 in/hr0.0 mm/hr 0.00 in0.0 mm
11:58 AM 56.7°F13.7°C 31.4°F-0.3°C 38% 7.8 mph ESE12.6 kmh ESE 12.0 mph19.3 kmh 30.12 in1020.0 mb 0.00 in0.0 mm 0.00 in/hr0.0 mm/hr 0.00 in0.0 mm
12:00 PM 56.7°F13.7°C 31.4°F-0.3°C 38% 6.5 mph SSE10.5 kmh SSE 12.0 mph19.3 kmh 30.12 in1020.0 mb 0.00 in0.0 mm 0.00 in/hr0.0 mm/hr 0.00 in0.0 mm
12:02 PM 56.7°F13.7°C 31.4°F-0.3°C 38% 7.8 mph S12.6 kmh S 12.0 mph19.3 kmh 30.12 in1020.0 mb 0.00 in0.0 mm 0.00 in/hr0.0 mm/hr 0.00 in0.0 mm
12:04 PM 56.7°F13.7°C 31.4°F-0.3°C 38% 7.8 mph SE12.6 kmh SE 10.0 mph16.1 kmh 30.12 in1020.0 mb 0.00 in0.0 mm 0.00 in/hr0.0 mm/hr 0.00 in0.0 mm
12:06 PM 56.7°F13.7°C 31.4°F-0.3°C 38% 6.5 mph S10.5 kmh S 10.0 mph16.1 kmh 30.12 in1020.0 mb 0.00 in0.0 mm 0.00 in/hr0.0 mm/hr 0.00 in0.0 mm
12:08 PM 56.7°F13.7°C 31.4°F-0.3°C 38% 6.5 mph SSE10.5 kmh SSE 10.0 mph16.1 kmh 30.12 in1020.0 mb 0.00 in0.0 mm 0.00 in/hr0.0 mm/hr 0.00 in0.0 mm
12:10 PM 56.7°F13.7°C 31.4°F-0.3°C 38% 9.1 mph SE14.6 kmh SE 10.0 mph16.1 kmh 30.12 in1020.0 mb 0.00 in0.0 mm 0.00 in/hr0.0 mm/hr 0.00 in0.0 mm
12:12 PM 56.7°F13.7°C 30.7°F-0.7°C 37% 9.1 mph ESE14.6 kmh ESE 10.0 mph16.1 kmh 30.12 in1020.0 mb 0.00 in0.0 mm 0.00 in/hr0.0 mm/hr 0.00 in0.0 mm
12:14 PM 56.7°F13.7°C 30.7°F-0.7°C 37% 7.8 mph SE12.6 kmh SE 10.0 mph16.1 kmh 30.12 in1020.0 mb 0.00 in0.0 mm 0.00 in/hr0.0 mm/hr 0.00 in0.0 mm
12:16 PM 56.7°F13.7°C 30.7°F-0.7°C 37% 9.1 mph ESE14.6 kmh ESE 10.0 mph16.1 kmh 30.12 in1020.0 mb 0.00 in0.0 mm 0.00 in/hr0.0 mm/hr 0.00 in0.0 mm
12:18 PM 57.7°F14.3°C 30.9°F-0.6°C 36% 10.4 mph ESE16.7 kmh ESE 10.0 mph16.1 kmh 30.12 in1020.0 mb 0.00 in0.0 mm 0.00 in/hr0.0 mm/hr 0.00 in0.0 mm
12:20 PM 56.7°F13.7°C 30.0°F-1.1°C 36% 5.2 mph SSE8.4 kmh SSE 9.0 mph14.5 kmh 30.12 in1020.0 mb 0.00 in0.0 mm 0.00 in/hr0.0 mm/hr 0.00 in0.0 mm
12:22 PM 57.7°F14.3°C 30.9°F-0.6°C 36% 6.5 mph S10.5 kmh S 10.0 mph16.1 kmh 30.12 in1020.0 mb 0.00 in0.0 mm 0.00 in/hr0.0 mm/hr 0.00 in0.0 mm
12:24 PM 57.7°F14.3°C 30.9°F-0.6°C 36% 6.5 mph SE10.5 kmh SE 10.0 mph16.1 kmh 30.12 in1020.0 mb 0.00 in0.0 mm 0.00 in/hr0.0 mm/hr 0.00 in0.0 mm
12:26 PM 58.7°F14.8°C 31.9°F-0.1°C 36% 5.2 mph SE8.4 kmh SE 10.0 mph16.1 kmh 30.12 in1020.0 mb 0.00 in0.0 mm 0.00 in/hr0.0 mm/hr 0.00 in0.0 mm
12:28 PM 58.7°F14.8°C 31.2°F-0.4°C 35% 5.2 mph ESE8.4 kmh ESE 10.0 mph16.1 kmh 30.11 in1019.6 mb 0.00 in0.0 mm 0.00 in/hr0.0 mm/hr 0.00 in0.0 mm
12:30 PM 58.7°F14.8°C 31.2°F-0.4°C 35% 5.2 mph SSE8.4 kmh SSE 10.0 mph16.1 kmh 30.11 in1019.6 mb 0.00 in0.0 mm 0.00 in/hr0.0 mm/hr 0.00 in0.0 mm
12:32 PM 58.7°F14.8°C 31.2°F-0.4°C 35% 7.8 mph SE12.6 kmh SE 9.0 mph14.5 kmh 30.11 in1019.6 mb 0.00 in0.0 mm 0.00 in/hr0.0 mm/hr 0.00 in0.0 mm
12:34 PM 57.7°F14.3°C 30.2°F-1.0°C 35% 7.8 mph ESE12.6 kmh ESE 11.0 mph17.7 kmh 30.11 in1019.6 mb 0.00 in0.0 mm 0.00 in/hr0.0 mm/hr 0.00 in0.0 mm
12:36 PM 58.7°F14.8°C 31.9°F-0.1°C 36% 6.5 mph SSE10.5 kmh SSE 11.0 mph17.7 kmh 30.11 in1019.6 mb 0.00 in0.0 mm 0.00 in/hr0.0 mm/hr 0.00 in0.0 mm
12:38 PM 58.7°F14.8°C 31.2°F-0.4°C 35% 10.4 mph SSE16.7 kmh SSE 11.0 mph17.7 kmh 30.11 in1019.6 mb 0.00 in0.0 mm 0.00 in/hr0.0 mm/hr 0.00 in0.0 mm
12:40 PM 58.7°F14.8°C 31.9°F-0.1°C 36% 9.1 mph SSE14.6 kmh SSE 12.0 mph19.3 kmh 30.11 in1019.6 mb 0.00 in0.0 mm 0.00 in/hr0.0 mm/hr 0.00 in0.0 mm
12:42 PM 58.7°F14.8°C 31.2°F-0.4°C 35% 7.8 mph SSW12.6 kmh SSW 12.0 mph19.3 kmh 30.11 in1019.6 mb 0.00 in0.0 mm 0.00 in/hr0.0 mm/hr 0.00 in0.0 mm
12:44 PM 58.7°F14.8°C 30.4°F-0.9°C 34% 6.5 mph SSW10.5 kmh SSW 12.0 mph19.3 kmh 30.11 in1019.6 mb 0.00 in0.0 mm 0.00 in/hr0.0 mm/hr 0.00 in0.0 mm
12:46 PM 58.7°F14.8°C 30.4°F-0.9°C 34% 3.9 mph SE6.3 kmh SE 9.0 mph14.5 kmh 30.11 in1019.6 mb 0.00 in0.0 mm 0.00 in/hr0.0 mm/hr 0.00 in0.0 mm
12:48 PM 59.7°F15.4°C 31.4°F-0.3°C 34% 7.8 mph ESE12.6 kmh ESE 9.0 mph14.5 kmh 30.12 in1020.0 mb 0.00 in0.0 mm 0.00 in/hr0.0 mm/hr 0.00 in0.0 mm
12:50 PM 58.7°F14.8°C 30.4°F-0.9°C 34% 9.1 mph SE14.6 kmh SE 10.0 mph16.1 kmh 30.12 in1020.0 mb 0.00 in0.0 mm 0.00 in/hr0.0 mm/hr 0.00 in0.0 mm
12:52 PM 58.7°F14.8°C 29.7°F-1.3°C 33% 6.5 mph S10.5 kmh S 10.0 mph16.1 kmh 30.12 in1020.0 mb 0.00 in0.0 mm 0.00 in/hr0.0 mm/hr 0.00 in0.0 mm
12:54 PM 59.7°F15.4°C 31.4°F-0.3°C 34% 6.5 mph S10.5 kmh S 10.0 mph16.1 kmh 30.12 in1020.0 mb 0.00 in0.0 mm 0.00 in/hr0.0 mm/hr 0.00 in0.0 mm
12:56 PM 59.7°F15.4°C 30.6°F-0.8°C 33% 5.2 mph SSW8.4 kmh SSW 10.0 mph16.1 kmh 30.12 in1020.0 mb 0.00 in0.0 mm 0.00 in/hr0.0 mm/hr 0.00 in0.0 mm
12:58 PM 60.8°F16.0°C 31.5°F-0.3°C 33% 10.4 mph S16.7 kmh S 8.0 mph12.9 kmh 30.11 in1019.6 mb 0.00 in0.0 mm 0.00 in/hr0.0 mm/hr 0.00 in0.0 mm
01:00 PM 59.7°F15.4°C 30.6°F-0.8°C 33% Calm Calm 8.0 mph12.9 kmh 30.11 in1019.6 mb 0.00 in0.0 mm 0.00 in/hr0.0 mm/hr 0.00 in0.0 mm
01:02 PM 59.7°F15.4°C 29.9°F-1.2°C 32% 3.9 mph ESE6.3 kmh ESE 8.0 mph12.9 kmh 30.11 in1019.6 mb 0.00 in0.0 mm 0.00 in/hr0.0 mm/hr 0.00 in0.0 mm
01:04 PM 59.7°F15.4°C 29.9°F-1.2°C 32% 9.1 mph SE14.6 kmh SE 10.0 mph16.1 kmh 30.11 in1019.6 mb 0.00 in0.0 mm 0.00 in/hr0.0 mm/hr 0.00 in0.0 mm
01:06 PM 60.8°F16.0°C 30.8°F-0.7°C 32% 6.5 mph SE10.5 kmh SE 10.0 mph16.1 kmh 30.11 in1019.6 mb 0.00 in0.0 mm 0.00 in/hr0.0 mm/hr 0.00 in0.0 mm
01:08 PM 60.8°F16.0°C 30.8°F-0.7°C 32% 3.9 mph WSW6.3 kmh WSW 10.0 mph16.1 kmh 30.11 in1019.6 mb 0.00 in0.0 mm 0.00 in/hr0.0 mm/hr 0.00 in0.0 mm
01:10 PM 60.8°F16.0°C 30.0°F-1.1°C 31% 9.1 mph ESE14.6 kmh ESE 9.0 mph14.5 kmh 30.11 in1019.6 mb 0.00 in0.0 mm 0.00 in/hr0.0 mm/hr 0.00 in0.0 mm
01:12 PM 59.7°F15.4°C 29.9°F-1.2°C 32% 6.5 mph SE10.5 kmh SE 11.0 mph17.7 kmh 30.11 in1019.6 mb 0.00 in0.0 mm 0.00 in/hr0.0 mm/hr 0.00 in0.0 mm
01:14 PM 59.7°F15.4°C 29.1°F-1.6°C 31% 5.2 mph SE8.4 kmh SE 11.0 mph17.7 kmh 30.11 in1019.6 mb 0.00 in0.0 mm 0.00 in/hr0.0 mm/hr 0.00 in0.0 mm
01:16 PM 60.8°F16.0°C 30.0°F-1.1°C 31% 1.3 mph SSW2.1 kmh SSW 10.0 mph16.1 kmh 30.11 in1019.6 mb 0.00 in0.0 mm 0.00 in/hr0.0 mm/hr 0.00 in0.0 mm
01:18 PM 60.8°F16.0°C 30.0°F-1.1°C 31% 9.1 mph S14.6 kmh S 8.0 mph12.9 kmh 30.10 in1019.3 mb 0.00 in0.0 mm 0.00 in/hr0.0 mm/hr 0.00 in0.0 mm
01:20 PM 60.8°F16.0°C 30.8°F-0.7°C 32% 5.2 mph S8.4 kmh S 11.0 mph17.7 kmh 30.10 in1019.3 mb 0.00 in0.0 mm 0.00 in/hr0.0 mm/hr 0.00 in0.0 mm
01:22 PM 60.8°F16.0°C 30.0°F-1.1°C 31% 10.4 mph S16.7 kmh S 11.0 mph17.7 kmh 30.10 in1019.3 mb 0.00 in0.0 mm 0.00 in/hr0.0 mm/hr 0.00 in0.0 mm
01:24 PM 60.8°F16.0°C 30.0°F-1.1°C 31% 5.2 mph WSW8.4 kmh WSW 10.0 mph16.1 kmh 30.10 in1019.3 mb 0.00 in0.0 mm 0.00 in/hr0.0 mm/hr 0.00 in0.0 mm
01:26 PM 60.8°F16.0°C 30.8°F-0.7°C 32% 3.9 mph WSW6.3 kmh WSW 10.0 mph16.1 kmh 30.10 in1019.3 mb 0.00 in0.0 mm 0.00 in/hr0.0 mm/hr 0.00 in0.0 mm
01:28 PM 60.8°F16.0°C 30.0°F-1.1°C 31% 2.6 mph W4.2 kmh W 7.0 mph11.3 kmh 30.10 in1019.3 mb 0.00 in0.0 mm 0.00 in/hr0.0 mm/hr 0.00 in0.0 mm
01:30 PM 60.8°F16.0°C 30.0°F-1.1°C 31% 7.8 mph SW12.6 kmh SW 12.0 mph19.3 kmh 30.10 in1019.3 mb 0.00 in0.0 mm 0.00 in/hr0.0 mm/hr 0.00 in0.0 mm
01:32 PM 60.8°F16.0°C 30.8°F-0.7°C 32% 11.7 mph WSW18.8 kmh WSW 13.0 mph20.9 kmh 30.10 in1019.3 mb 0.00 in0.0 mm 0.00 in/hr0.0 mm/hr 0.00 in0.0 mm
01:34 PM 60.8°F16.0°C 30.8°F-0.7°C 32% 11.7 mph SW18.8 kmh SW 13.0 mph20.9 kmh 30.10 in1019.3 mb 0.00 in0.0 mm 0.00 in/hr0.0 mm/hr 0.00 in0.0 mm
01:36 PM 60.8°F16.0°C 30.8°F-0.7°C 32% 6.5 mph SW10.5 kmh SW 13.0 mph20.9 kmh 30.10 in1019.3 mb 0.00 in0.0 mm 0.00 in/hr0.0 mm/hr 0.00 in0.0 mm
01:38 PM 60.8°F16.0°C 30.8°F-0.7°C 32% 10.4 mph W16.7 kmh W 11.0 mph17.7 kmh 30.11 in1019.6 mb 0.00 in0.0 mm 0.00 in/hr0.0 mm/hr 0.00 in0.0 mm
01:40 PM 59.7°F15.4°C 29.9°F-1.2°C 32% 6.5 mph WSW10.5 kmh WSW 12.0 mph19.3 kmh 30.11 in1019.6 mb 0.00 in0.0 mm 0.00 in/hr0.0 mm/hr 0.00 in0.0 mm
01:42 PM 59.7°F15.4°C 29.9°F-1.2°C 32% 6.5 mph W10.5 kmh W 12.0 mph19.3 kmh 30.11 in1019.6 mb 0.00 in0.0 mm 0.00 in/hr0.0 mm/hr 0.00 in0.0 mm
01:44 PM 60.8°F16.0°C 30.8°F-0.7°C 32% 9.1 mph SW14.6 kmh SW 10.0 mph16.1 kmh 30.11 in1019.6 mb 0.00 in0.0 mm 0.00 in/hr0.0 mm/hr 0.00 in0.0 mm
01:46 PM 60.8°F16.0°C 30.0°F-1.1°C 31% 11.7 mph S18.8 kmh S 11.0 mph17.7 kmh 30.11 in1019.6 mb 0.00 in0.0 mm 0.00 in/hr0.0 mm/hr 0.00 in0.0 mm
01:48 PM 60.8°F16.0°C 30.0°F-1.1°C 31% 5.2 mph S8.4 kmh S 11.0 mph17.7 kmh 30.11 in1019.6 mb 0.00 in0.0 mm 0.00 in/hr0.0 mm/hr 0.00 in0.0 mm
01:50 PM 60.8°F16.0°C 30.0°F-1.1°C 31% 5.2 mph SE8.4 kmh SE 11.0 mph17.7 kmh 30.11 in1019.6 mb 0.00 in0.0 mm 0.00 in/hr0.0 mm/hr 0.00 in0.0 mm
01:52 PM 61.8°F16.6°C 30.9°F-0.6°C 31% 5.2 mph SE8.4 kmh SE 10.0 mph16.1 kmh 30.11 in1019.6 mb 0.00 in0.0 mm 0.00 in/hr0.0 mm/hr 0.00 in0.0 mm
01:54 PM 61.8°F16.6°C 30.1°F-1.1°C 30% 10.4 mph SW16.7 kmh SW 9.0 mph14.5 kmh 30.11 in1019.6 mb 0.00 in0.0 mm 0.00 in/hr0.0 mm/hr 0.00 in0.0 mm
01:56 PM 61.8°F16.6°C 30.9°F-0.6°C 31% 15.6 mph SW25.1 kmh SW 15.0 mph24.1 kmh 30.11 in1019.6 mb 0.00 in0.0 mm 0.00 in/hr0.0 mm/hr 0.00 in0.0 mm
01:58 PM 61.8°F16.6°C 30.9°F-0.6°C 31% 11.7 mph SW18.8 kmh SW 15.0 mph24.1 kmh 30.10 in1019.3 mb 0.00 in0.0 mm 0.00 in/hr0.0 mm/hr 0.00 in0.0 mm
02:00 PM 60.8°F16.0°C 30.0°F-1.1°C 31% 6.5 mph SW10.5 kmh SW 13.0 mph20.9 kmh 30.10 in1019.3 mb 0.00 in0.0 mm 0.00 in/hr0.0 mm/hr 0.00 in0.0 mm
02:02 PM 60.8°F16.0°C 30.0°F-1.1°C 31% 5.2 mph S8.4 kmh S 11.0 mph17.7 kmh 30.10 in1019.3 mb 0.00 in0.0 mm 0.00 in/hr0.0 mm/hr 0.00 in0.0 mm
02:04 PM 61.8°F16.6°C 30.1°F-1.1°C 30% 6.5 mph SSW10.5 kmh SSW 7.0 mph11.3 kmh 30.10 in1019.3 mb 0.00 in0.0 mm 0.00 in/hr0.0 mm/hr 0.00 in0.0 mm
02:06 PM 61.8°F16.6°C 30.1°F-1.1°C 30% Calm Calm 7.0 mph11.3 kmh 30.10 in1019.3 mb 0.00 in0.0 mm 0.00 in/hr0.0 mm/hr 0.00 in0.0 mm
02:08 PM 62.8°F17.1°C 30.1°F-1.1°C 29% 2.6 mph SW4.2 kmh SW 7.0 mph11.3 kmh 30.09 in1019.0 mb 0.00 in0.0 mm 0.00 in/hr0.0 mm/hr 0.00 in0.0 mm
02:10 PM 62.8°F17.1°C 30.1°F-1.1°C 29% 3.9 mph S6.3 kmh S 5.0 mph8.0 kmh 30.09 in1019.0 mb 0.00 in0.0 mm 0.00 in/hr0.0 mm/hr 0.00 in0.0 mm
02:12 PM 62.8°F17.1°C 30.1°F-1.1°C 29% 9.1 mph S14.6 kmh S 9.0 mph14.5 kmh 30.09 in1019.0 mb 0.00 in0.0 mm 0.00 in/hr0.0 mm/hr 0.00 in0.0 mm
02:14 PM 62.8°F17.1°C 30.1°F-1.1°C 29% 7.8 mph WSW12.6 kmh WSW 10.0 mph16.1 kmh 30.09 in1019.0 mb 0.00 in0.0 mm 0.00 in/hr0.0 mm/hr 0.00 in0.0 mm
02:16 PM 61.8°F16.6°C 29.2°F-1.6°C 29% 7.8 mph SW12.6 kmh SW 10.0 mph16.1 kmh 30.09 in1019.0 mb 0.00 in0.0 mm 0.00 in/hr0.0 mm/hr 0.00 in0.0 mm
02:18 PM 61.8°F16.6°C 30.1°F-1.1°C 30% 13.0 mph S20.9 kmh S 10.0 mph16.1 kmh 30.09 in1019.0 mb 0.00 in0.0 mm 0.00 in/hr0.0 mm/hr 0.00 in0.0 mm
02:20 PM 61.8°F16.6°C 30.1°F-1.1°C 30% 5.2 mph SSW8.4 kmh SSW 10.0 mph16.1 kmh 30.09 in1019.0 mb 0.00 in0.0 mm 0.00 in/hr0.0 mm/hr 0.00 in0.0 mm
02:22 PM 61.8°F16.6°C 29.2°F-1.6°C 29% 7.8 mph SSE12.6 kmh SSE 10.0 mph16.1 kmh 30.09 in1019.0 mb 0.00 in0.0 mm 0.00 in/hr0.0 mm/hr 0.00 in0.0 mm
02:24 PM 61.8°F16.6°C 29.2°F-1.6°C 29% 7.8 mph SSE12.6 kmh SSE 10.0 mph16.1 kmh 30.09 in1019.0 mb 0.00 in0.0 mm 0.00 in/hr0.0 mm/hr 0.00 in0.0 mm
02:26 PM 61.8°F16.6°C 29.2°F-1.6°C 29% 7.8 mph WSW12.6 kmh WSW 10.0 mph16.1 kmh 30.09 in1019.0 mb 0.00 in0.0 mm 0.00 in/hr0.0 mm/hr 0.00 in0.0 mm
02:28 PM 61.8°F16.6°C 29.2°F-1.6°C 29% 6.5 mph SSW10.5 kmh SSW 8.0 mph12.9 kmh 30.08 in1018.6 mb 0.00 in0.0 mm 0.00 in/hr0.0 mm/hr 0.00 in0.0 mm
02:30 PM 61.8°F16.6°C 29.2°F-1.6°C 29% 5.2 mph SSE8.4 kmh SSE 9.0 mph14.5 kmh 30.08 in1018.6 mb 0.00 in0.0 mm 0.00 in/hr0.0 mm/hr 0.00 in0.0 mm
02:32 PM 61.8°F16.6°C 30.1°F-1.1°C 30% 10.4 mph SSW16.7 kmh SSW 10.0 mph16.1 kmh 30.08 in1018.6 mb 0.00 in0.0 mm 0.00 in/hr0.0 mm/hr 0.00 in0.0 mm
02:34 PM 61.8°F16.6°C 30.1°F-1.1°C 30% 3.9 mph SW6.3 kmh SW 10.0 mph16.1 kmh 30.08 in1018.6 mb 0.00 in0.0 mm 0.00 in/hr0.0 mm/hr 0.00 in0.0 mm
02:36 PM 61.8°F16.6°C 29.2°F-1.6°C 29% 10.4 mph SSW16.7 kmh SSW 11.0 mph17.7 kmh 30.08 in1018.6 mb 0.00 in0.0 mm 0.00 in/hr0.0 mm/hr 0.00 in0.0 mm
02:38 PM 61.8°F16.6°C 29.2°F-1.6°C 29% 7.8 mph S12.6 kmh S 11.0 mph17.7 kmh 30.07 in1018.3 mb 0.00 in0.0 mm 0.00 in/hr0.0 mm/hr 0.00 in0.0 mm
02:40 PM 62.8°F17.1°C 30.1°F-1.1°C 29% 7.8 mph S12.6 kmh S 11.0 mph17.7 kmh 30.07 in1018.3 mb 0.00 in0.0 mm 0.00 in/hr0.0 mm/hr 0.00 in0.0 mm
02:42 PM 62.8°F17.1°C 30.1°F-1.1°C 29% 5.2 mph ESE8.4 kmh ESE 9.0 mph14.5 kmh 30.07 in1018.3 mb 0.00 in0.0 mm 0.00 in/hr0.0 mm/hr 0.00 in0.0 mm
02:44 PM 62.8°F17.1°C 30.1°F-1.1°C 29% 5.2 mph SSW8.4 kmh SSW 11.0 mph17.7 kmh 30.07 in1018.3 mb 0.00 in0.0 mm 0.00 in/hr0.0 mm/hr 0.00 in0.0 mm
02:46 PM 62.8°F17.1°C 30.1°F-1.1°C 29% 5.2 mph S8.4 kmh S 11.0 mph17.7 kmh 30.07 in1018.3 mb 0.00 in0.0 mm 0.00 in/hr0.0 mm/hr 0.00 in0.0 mm
02:48 PM 62.8°F17.1°C 30.1°F-1.1°C 29% 9.1 mph WSW14.6 kmh WSW 11.0 mph17.7 kmh 30.07 in1018.3 mb 0.00 in0.0 mm 0.00 in/hr0.0 mm/hr 0.00 in0.0 mm
02:50 PM 61.8°F16.6°C 29.2°F-1.6°C 29% 6.5 mph SSW10.5 kmh SSW 9.0 mph14.5 kmh 30.07 in1018.3 mb 0.00 in0.0 mm 0.00 in/hr0.0 mm/hr 0.00 in0.0 mm
02:52 PM 61.8°F16.6°C 29.2°F-1.6°C 29% 3.9 mph SSE6.3 kmh SSE 8.0 mph12.9 kmh 30.07 in1018.3 mb 0.00 in0.0 mm 0.00 in/hr0.0 mm/hr 0.00 in0.0 mm
02:54 PM 62.8°F17.1°C 30.1°F-1.1°C 29% Calm Calm 6.0 mph9.7 kmh 30.07 in1018.3 mb 0.00 in0.0 mm 0.00 in/hr0.0 mm/hr 0.00 in0.0 mm
02:56 PM 63.9°F17.7°C 31.0°F-0.6°C 29% 1.3 mph WSW2.1 kmh WSW 6.0 mph9.7 kmh 30.07 in1018.3 mb 0.00 in0.0 mm 0.00 in/hr0.0 mm/hr 0.00 in0.0 mm
02:58 PM 63.9°F17.7°C 30.2°F-1.0°C 28% 5.2 mph WSW8.4 kmh WSW 6.0 mph9.7 kmh 30.06 in1017.9 mb 0.00 in0.0 mm 0.00 in/hr0.0 mm/hr 0.00 in0.0 mm
03:00 PM 63.9°F17.7°C 30.2°F-1.0°C 28% 5.2 mph N8.4 kmh N 6.0 mph9.7 kmh 30.06 in1017.9 mb 0.00 in0.0 mm 0.00 in/hr0.0 mm/hr 0.00 in0.0 mm
03:02 PM 63.9°F17.7°C 30.2°F-1.0°C 28% 3.9 mph NNW6.3 kmh NNW 6.0 mph9.7 kmh 30.06 in1017.9 mb 0.00 in0.0 mm 0.00 in/hr0.0 mm/hr 0.00 in0.0 mm
03:04 PM 63.9°F17.7°C 30.2°F-1.0°C 28% 10.4 mph W16.7 kmh W 8.0 mph12.9 kmh 30.06 in1017.9 mb 0.00 in0.0 mm 0.00 in/hr0.0 mm/hr 0.00 in0.0 mm
03:06 PM 62.8°F17.1°C 29.3°F-1.5°C 28% 2.6 mph SW4.2 kmh SW 9.0 mph14.5 kmh 30.06 in1017.9 mb 0.00 in0.0 mm 0.00 in/hr0.0 mm/hr 0.00 in0.0 mm
03:08 PM 62.8°F17.1°C 29.3°F-1.5°C 28% 9.1 mph WSW14.6 kmh WSW 9.0 mph14.5 kmh 30.05 in1017.6 mb 0.00 in0.0 mm 0.00 in/hr0.0 mm/hr 0.00 in0.0 mm
03:10 PM 62.8°F17.1°C 30.1°F-1.1°C 29% 7.8 mph WNW12.6 kmh WNW 9.0 mph14.5 kmh 30.05 in1017.6 mb 0.00 in0.0 mm 0.00 in/hr0.0 mm/hr 0.00 in0.0 mm
03:12 PM 62.8°F17.1°C 29.3°F-1.5°C 28% 3.9 mph SW6.3 kmh SW 8.0 mph12.9 kmh 30.05 in1017.6 mb 0.00 in0.0 mm 0.00 in/hr0.0 mm/hr 0.00 in0.0 mm
03:14 PM 62.8°F17.1°C 29.3°F-1.5°C 28% 3.9 mph SW6.3 kmh SW 8.0 mph12.9 kmh 30.05 in1017.6 mb 0.00 in0.0 mm 0.00 in/hr0.0 mm/hr 0.00 in0.0 mm
03:16 PM 63.9°F17.7°C 30.2°F-1.0°C 28% 5.2 mph W8.4 kmh W 5.0 mph8.0 kmh 30.05 in1017.6 mb 0.00 in0.0 mm 0.00 in/hr0.0 mm/hr 0.00 in0.0 mm
03:18 PM 63.9°F17.7°C 30.2°F-1.0°C 28% 3.9 mph NW6.3 kmh NW 8.0 mph12.9 kmh 30.05 in1017.6 mb 0.00 in0.0 mm 0.00 in/hr0.0 mm/hr 0.00 in0.0 mm
03:20 PM 63.9°F17.7°C 30.2°F-1.0°C 28% 2.6 mph NW4.2 kmh NW 8.0 mph12.9 kmh 30.05 in1017.6 mb 0.00 in0.0 mm 0.00 in/hr0.0 mm/hr 0.00 in0.0 mm
03:22 PM 64.9°F18.3°C 30.1°F-1.1°C 27% 3.9 mph S6.3 kmh S 7.0 mph11.3 kmh 30.05 in1017.6 mb 0.00 in0.0 mm 0.00 in/hr0.0 mm/hr 0.00 in0.0 mm
03:24 PM 64.9°F18.3°C 30.1°F-1.1°C 27% 5.2 mph SW8.4 kmh SW 6.0 mph9.7 kmh 30.05 in1017.6 mb 0.00 in0.0 mm 0.00 in/hr0.0 mm/hr 0.00 in0.0 mm
03:26 PM 64.9°F18.3°C 31.0°F-0.6°C 28% 5.2 mph WNW8.4 kmh WNW 6.0 mph9.7 kmh 30.05 in1017.6 mb 0.00 in0.0 mm 0.00 in/hr0.0 mm/hr 0.00 in0.0 mm
03:28 PM 64.9°F18.3°C 31.0°F-0.6°C 28% 9.1 mph WSW14.6 kmh WSW 9.0 mph14.5 kmh 30.04 in1017.3 mb 0.00 in0.0 mm 0.00 in/hr0.0 mm/hr 0.00 in0.0 mm
03:30 PM 63.9°F17.7°C 30.2°F-1.0°C 28% 5.2 mph W8.4 kmh W 9.0 mph14.5 kmh 30.04 in1017.3 mb 0.00 in0.0 mm 0.00 in/hr0.0 mm/hr 0.00 in0.0 mm
03:32 PM 63.9°F17.7°C 30.2°F-1.0°C 28% 13.0 mph W20.9 kmh W 10.0 mph16.1 kmh 30.04 in1017.3 mb 0.00 in0.0 mm 0.00 in/hr0.0 mm/hr 0.00 in0.0 mm
03:34 PM 62.8°F17.1°C 29.3°F-1.5°C 28% 11.7 mph W18.8 kmh W 10.0 mph16.1 kmh 30.04 in1017.3 mb 0.00 in0.0 mm 0.00 in/hr0.0 mm/hr 0.00 in0.0 mm
03:36 PM 62.8°F17.1°C 30.1°F-1.1°C 29% 6.5 mph W10.5 kmh W 10.0 mph16.1 kmh 30.04 in1017.3 mb 0.00 in0.0 mm 0.00 in/hr0.0 mm/hr 0.00 in0.0 mm
03:38 PM 62.8°F17.1°C 30.1°F-1.1°C 29% 9.1 mph SW14.6 kmh SW 10.0 mph16.1 kmh 30.05 in1017.6 mb 0.00 in0.0 mm 0.00 in/hr0.0 mm/hr 0.00 in0.0 mm
03:40 PM 62.8°F17.1°C 30.1°F-1.1°C 29% 10.4 mph SW16.7 kmh SW 10.0 mph16.1 kmh 30.05 in1017.6 mb 0.00 in0.0 mm 0.00 in/hr0.0 mm/hr 0.00 in0.0 mm
03:42 PM 61.8°F16.6°C 29.2°F-1.6°C 29% 9.1 mph W14.6 kmh W 10.0 mph16.1 kmh 30.05 in1017.6 mb 0.00 in0.0 mm 0.00 in/hr0.0 mm/hr 0.00 in0.0 mm
03:44 PM 61.8°F16.6°C 29.2°F-1.6°C 29% 9.1 mph NW14.6 kmh NW 10.0 mph16.1 kmh 30.05 in1017.6 mb 0.00 in0.0 mm 0.00 in/hr0.0 mm/hr 0.00 in0.0 mm
03:46 PM 61.8°F16.6°C 29.2°F-1.6°C 29% 5.2 mph WSW8.4 kmh WSW 9.0 mph14.5 kmh 30.05 in1017.6 mb 0.00 in0.0 mm 0.00 in/hr0.0 mm/hr 0.00 in0.0 mm
03:48 PM 62.8°F17.1°C 29.3°F-1.5°C 28% 9.1 mph SSE14.6 kmh SSE 9.0 mph14.5 kmh 30.05 in1017.6 mb 0.00 in0.0 mm 0.00 in/hr0.0 mm/hr 0.00 in0.0 mm
03:50 PM 62.8°F17.1°C 29.3°F-1.5°C 28% 6.5 mph WSW10.5 kmh WSW 9.0 mph14.5 kmh 30.05 in1017.6 mb 0.00 in0.0 mm 0.00 in/hr0.0 mm/hr 0.00 in0.0 mm
03:52 PM 62.8°F17.1°C 29.3°F-1.5°C 28% 3.9 mph SW6.3 kmh SW 9.0 mph14.5 kmh 30.05 in1017.6 mb 0.00 in0.0 mm 0.00 in/hr0.0 mm/hr 0.00 in0.0 mm
03:54 PM 63.9°F17.7°C 30.2°F-1.0°C 28% 6.5 mph S10.5 kmh S 8.0 mph12.9 kmh 30.05 in1017.6 mb 0.00 in0.0 mm 0.00 in/hr0.0 mm/hr 0.00 in0.0 mm
03:56 PM 63.9°F17.7°C 29.3°F-1.5°C 27% 5.2 mph SSW8.4 kmh SSW 6.0 mph9.7 kmh 30.05 in1017.6 mb 0.00 in0.0 mm 0.00 in/hr0.0 mm/hr 0.00 in0.0 mm
03:58 PM 63.9°F17.7°C 30.2°F-1.0°C 28% 6.5 mph SW10.5 kmh SW 8.0 mph12.9 kmh 30.05 in1017.6 mb 0.00 in0.0 mm 0.00 in/hr0.0 mm/hr 0.00 in0.0 mm
04:00 PM 62.8°F17.1°C 29.3°F-1.5°C 28% 6.5 mph SSW10.5 kmh SSW 8.0 mph12.9 kmh 30.05 in1017.6 mb 0.00 in0.0 mm 0.00 in/hr0.0 mm/hr 0.00 in0.0 mm
04:02 PM 62.8°F17.1°C 29.3°F-1.5°C 28% 5.2 mph S8.4 kmh S 8.0 mph12.9 kmh 30.05 in1017.6 mb 0.00 in0.0 mm 0.00 in/hr0.0 mm/hr 0.00 in0.0 mm
04:04 PM 63.9°F17.7°C 29.3°F-1.5°C 27% 5.2 mph SSE8.4 kmh SSE 6.0 mph9.7 kmh 30.05 in1017.6 mb 0.00 in0.0 mm 0.00 in/hr0.0 mm/hr 0.00 in0.0 mm
04:06 PM 63.9°F17.7°C 30.2°F-1.0°C 28% 5.2 mph W8.4 kmh W 5.0 mph8.0 kmh 30.05 in1017.6 mb 0.00 in0.0 mm 0.00 in/hr0.0 mm/hr 0.00 in0.0 mm
04:08 PM 64.9°F18.3°C 31.0°F-0.6°C 28% 2.6 mph E4.2 kmh E 5.0 mph8.0 kmh 30.05 in1017.6 mb 0.00 in0.0 mm 0.00 in/hr0.0 mm/hr 0.00 in0.0 mm
04:10 PM 64.9°F18.3°C 31.0°F-0.6°C 28% 3.9 mph E6.3 kmh E 4.0 mph6.4 kmh 30.05 in1017.6 mb 0.00 in0.0 mm 0.00 in/hr0.0 mm/hr 0.00 in0.0 mm
04:12 PM 64.9°F18.3°C 30.1°F-1.1°C 27% Calm Calm 4.0 mph6.4 kmh 30.05 in1017.6 mb 0.00 in0.0 mm 0.00 in/hr0.0 mm/hr 0.00 in0.0 mm
04:14 PM 65.9°F18.8°C 31.0°F-0.6°C 27% 1.3 mph ENE2.1 kmh ENE 4.0 mph6.4 kmh 30.05 in1017.6 mb 0.00 in0.0 mm 0.00 in/hr0.0 mm/hr 0.00 in0.0 mm
04:16 PM 65.9°F18.8°C 31.0°F-0.6°C 27% 2.6 mph NW4.2 kmh NW 4.0 mph6.4 kmh 30.05 in1017.6 mb 0.00 in0.0 mm 0.00 in/hr0.0 mm/hr 0.00 in0.0 mm
04:18 PM 67.0°F19.4°C 31.9°F-0.1°C 27% 7.8 mph W12.6 kmh W 6.0 mph9.7 kmh 30.04 in1017.3 mb 0.00 in0.0 mm 0.00 in/hr0.0 mm/hr 0.00 in0.0 mm
04:20 PM 64.9°F18.3°C 29.2°F-1.6°C 26% 10.4 mph W16.7 kmh W 10.0 mph16.1 kmh 30.04 in1017.3 mb 0.00 in0.0 mm 0.00 in/hr0.0 mm/hr 0.00 in0.0 mm
04:22 PM 64.9°F18.3°C 30.1°F-1.1°C 27% 5.2 mph W8.4 kmh W 10.0 mph16.1 kmh 30.04 in1017.3 mb 0.00 in0.0 mm 0.00 in/hr0.0 mm/hr 0.00 in0.0 mm
04:24 PM 64.9°F18.3°C 30.1°F-1.1°C 27% 3.9 mph NE6.3 kmh NE 10.0 mph16.1 kmh 30.04 in1017.3 mb 0.00 in0.0 mm 0.00 in/hr0.0 mm/hr 0.00 in0.0 mm
04:26 PM 64.9°F18.3°C 30.1°F-1.1°C 27% 3.9 mph W6.3 kmh W 5.0 mph8.0 kmh 30.04 in1017.3 mb 0.00 in0.0 mm 0.00 in/hr0.0 mm/hr 0.00 in0.0 mm
04:28 PM 65.9°F18.8°C 31.0°F-0.6°C 27% 3.9 mph SSW6.3 kmh SSW 6.0 mph9.7 kmh 30.04 in1017.3 mb 0.00 in0.0 mm 0.00 in/hr0.0 mm/hr 0.00 in0.0 mm
04:30 PM 64.9°F18.3°C 30.1°F-1.1°C 27% 6.5 mph WSW10.5 kmh WSW 9.0 mph14.5 kmh 30.04 in1017.3 mb 0.00 in0.0 mm 0.00 in/hr0.0 mm/hr 0.00 in0.0 mm
04:32 PM 64.9°F18.3°C 30.1°F-1.1°C 27% 1.3 mph W2.1 kmh W 9.0 mph14.5 kmh 30.04 in1017.3 mb 0.00 in0.0 mm 0.00 in/hr0.0 mm/hr 0.00 in0.0 mm
04:34 PM 64.9°F18.3°C 30.1°F-1.1°C 27% 10.4 mph SSW16.7 kmh SSW 9.0 mph14.5 kmh 30.04 in1017.3 mb 0.00 in0.0 mm 0.00 in/hr0.0 mm/hr 0.00 in0.0 mm
04:36 PM 63.9°F17.7°C 29.3°F-1.5°C 27% 7.8 mph SW12.6 kmh SW 9.0 mph14.5 kmh 30.04 in1017.3 mb 0.00 in0.0 mm 0.00 in/hr0.0 mm/hr 0.00 in0.0 mm
04:38 PM 63.9°F17.7°C 30.2°F-1.0°C 28% 1.3 mph SSW2.1 kmh SSW 9.0 mph14.5 kmh 30.03 in1016.9 mb 0.00 in0.0 mm 0.00 in/hr0.0 mm/hr 0.00 in0.0 mm
04:40 PM 63.9°F17.7°C 30.2°F-1.0°C 28% 2.6 mph ESE4.2 kmh ESE 8.0 mph12.9 kmh 30.03 in1016.9 mb 0.00 in0.0 mm 0.00 in/hr0.0 mm/hr 0.00 in0.0 mm
04:42 PM 64.9°F18.3°C 31.0°F-0.6°C 28% Calm Calm 7.0 mph11.3 kmh 30.03 in1016.9 mb 0.00 in0.0 mm 0.00 in/hr0.0 mm/hr 0.00 in0.0 mm
04:44 PM 64.9°F18.3°C 30.1°F-1.1°C 27% 6.5 mph SW10.5 kmh SW 6.0 mph9.7 kmh 30.03 in1016.9 mb 0.00 in0.0 mm 0.00 in/hr0.0 mm/hr 0.00 in0.0 mm
04:46 PM 64.9°F18.3°C 30.1°F-1.1°C 27% 5.2 mph WSW8.4 kmh WSW 7.0 mph11.3 kmh 30.03 in1016.9 mb 0.00 in0.0 mm 0.00 in/hr0.0 mm/hr 0.00 in0.0 mm
04:48 PM 64.9°F18.3°C 29.2°F-1.6°C 26% Calm Calm 7.0 mph11.3 kmh 30.03 in1016.9 mb 0.00 in0.0 mm 0.00 in/hr0.0 mm/hr 0.00 in0.0 mm
04:50 PM 64.9°F18.3°C 29.2°F-1.6°C 26% 7.8 mph SSW12.6 kmh SSW 9.0 mph14.5 kmh 30.03 in1016.9 mb 0.00 in0.0 mm 0.00 in/hr0.0 mm/hr 0.00 in0.0 mm
04:52 PM 64.9°F18.3°C 30.1°F-1.1°C 27% 6.5 mph SW10.5 kmh SW 9.0 mph14.5 kmh 30.03 in1016.9 mb 0.00 in0.0 mm 0.00 in/hr0.0 mm/hr 0.00 in0.0 mm
04:54 PM 63.9°F17.7°C 29.3°F-1.5°C 27% 6.5 mph WSW10.5 kmh WSW 9.0 mph14.5 kmh 30.03 in1016.9 mb 0.00 in0.0 mm 0.00 in/hr0.0 mm/hr 0.00 in0.0 mm
04:56 PM 63.9°F17.7°C 29.3°F-1.5°C 27% 5.2 mph SW8.4 kmh SW 8.0 mph12.9 kmh 30.03 in1016.9 mb 0.00 in0.0 mm 0.00 in/hr0.0 mm/hr 0.00 in0.0 mm
04:58 PM 63.9°F17.7°C 29.3°F-1.5°C 27% 5.2 mph WSW8.4 kmh WSW 6.0 mph9.7 kmh 30.04 in1017.3 mb 0.00 in0.0 mm 0.00 in/hr0.0 mm/hr 0.00 in0.0 mm
05:00 PM 63.9°F17.7°C 30.2°F-1.0°C 28% 10.4 mph SW16.7 kmh SW 8.0 mph12.9 kmh 30.04 in1017.3 mb 0.00 in0.0 mm 0.00 in/hr0.0 mm/hr 0.00 in0.0 mm
05:02 PM 62.8°F17.1°C 29.3°F-1.5°C 28% 10.4 mph W16.7 kmh W 10.0 mph16.1 kmh 30.04 in1017.3 mb 0.00 in0.0 mm 0.00 in/hr0.0 mm/hr 0.00 in0.0 mm
05:04 PM 62.8°F17.1°C 29.3°F-1.5°C 28% 3.9 mph W6.3 kmh W 10.0 mph16.1 kmh 30.04 in1017.3 mb 0.00 in0.0 mm 0.00 in/hr0.0 mm/hr 0.00 in0.0 mm
05:08 PM 62.8°F17.1°C 29.3°F-1.5°C 28% Calm Calm 7.0 mph11.3 kmh 30.05 in1017.6 mb 0.00 in0.0 mm 0.00 in/hr0.0 mm/hr 0.00 in0.0 mm
05:10 PM 62.8°F17.1°C 29.3°F-1.5°C 28% 1.3 mph WSW2.1 kmh WSW 3.0 mph4.8 kmh 30.05 in1017.6 mb 0.00 in0.0 mm 0.00 in/hr0.0 mm/hr 0.00 in0.0 mm
05:12 PM 62.8°F17.1°C 29.3°F-1.5°C 28% Calm Calm 3.0 mph4.8 kmh 30.05 in1017.6 mb 0.00 in0.0 mm 0.00 in/hr0.0 mm/hr 0.00 in0.0 mm
05:14 PM 63.9°F17.7°C 30.2°F-1.0°C 28% Calm Calm 3.0 mph4.8 kmh 30.05 in1017.6 mb 0.00 in0.0 mm 0.00 in/hr0.0 mm/hr 0.00 in0.0 mm
05:16 PM 63.9°F17.7°C 30.2°F-1.0°C 28% 2.6 mph E4.2 kmh E 3.0 mph4.8 kmh 30.05 in1017.6 mb 0.00 in0.0 mm 0.00 in/hr0.0 mm/hr 0.00 in0.0 mm
05:18 PM 63.9°F17.7°C 29.3°F-1.5°C 27% 5.2 mph E8.4 kmh E 5.0 mph8.0 kmh 30.05 in1017.6 mb 0.00 in0.0 mm 0.00 in/hr0.0 mm/hr 0.00 in0.0 mm
05:20 PM 63.9°F17.7°C 30.2°F-1.0°C 28% 1.3 mph ESE2.1 kmh ESE 5.0 mph8.0 kmh 30.05 in1017.6 mb 0.00 in0.0 mm 0.00 in/hr0.0 mm/hr 0.00 in0.0 mm
05:22 PM 63.9°F17.7°C 30.2°F-1.0°C 28% Calm Calm 5.0 mph8.0 kmh 30.05 in1017.6 mb 0.00 in0.0 mm 0.00 in/hr0.0 mm/hr 0.00 in0.0 mm
05:24 PM 63.9°F17.7°C 30.2°F-1.0°C 28% 1.3 mph E2.1 kmh E 4.0 mph6.4 kmh 30.05 in1017.6 mb 0.00 in0.0 mm 0.00 in/hr0.0 mm/hr 0.00 in0.0 mm
05:26 PM 64.9°F18.3°C 30.1°F-1.1°C 27% 2.6 mph NE4.2 kmh NE 2.0 mph3.2 kmh 30.05 in1017.6 mb 0.00 in0.0 mm 0.00 in/hr0.0 mm/hr 0.00 in0.0 mm
05:28 PM 64.9°F18.3°C 29.2°F-1.6°C 26% 3.9 mph NE6.3 kmh NE 3.0 mph4.8 kmh 30.05 in1017.6 mb 0.00 in0.0 mm 0.00 in/hr0.0 mm/hr 0.00 in0.0 mm
05:30 PM 65.9°F18.8°C 31.0°F-0.6°C 27% Calm Calm 3.0 mph4.8 kmh 30.05 in1017.6 mb 0.00 in0.0 mm 0.00 in/hr0.0 mm/hr 0.00 in0.0 mm
05:32 PM 65.9°F18.8°C 31.0°F-0.6°C 27% 5.2 mph ESE8.4 kmh ESE 4.0 mph6.4 kmh 30.05 in1017.6 mb 0.00 in0.0 mm 0.00 in/hr0.0 mm/hr 0.00 in0.0 mm
05:34 PM 65.9°F18.8°C 31.0°F-0.6°C 27% 3.9 mph SE6.3 kmh SE 4.0 mph6.4 kmh 30.05 in1017.6 mb 0.00 in0.0 mm 0.00 in/hr0.0 mm/hr 0.00 in0.0 mm
05:36 PM 65.9°F18.8°C 31.0°F-0.6°C 27% 3.9 mph SSW6.3 kmh SSW 5.0 mph8.0 kmh 30.05 in1017.6 mb 0.00 in0.0 mm 0.00 in/hr0.0 mm/hr 0.00 in0.0 mm
05:38 PM 65.9°F18.8°C 31.0°F-0.6°C 27% 3.9 mph SSW6.3 kmh SSW 5.0 mph8.0 kmh 30.04 in1017.3 mb 0.00 in0.0 mm 0.00 in/hr0.0 mm/hr 0.00 in0.0 mm
05:40 PM 64.9°F18.3°C 29.2°F-1.6°C 26% 5.2 mph SW8.4 kmh SW 6.0 mph9.7 kmh 30.04 in1017.3 mb 0.00 in0.0 mm 0.00 in/hr0.0 mm/hr 0.00 in0.0 mm
05:42 PM 64.9°F18.3°C 30.1°F-1.1°C 27% 9.1 mph WSW14.6 kmh WSW 8.0 mph12.9 kmh 30.04 in1017.3 mb 0.00 in0.0 mm 0.00 in/hr0.0 mm/hr 0.00 in0.0 mm
05:44 PM 63.9°F17.7°C 29.3°F-1.5°C 27% 9.1 mph SW14.6 kmh SW 9.0 mph14.5 kmh 30.04 in1017.3 mb 0.00 in0.0 mm 0.00 in/hr0.0 mm/hr 0.00 in0.0 mm
05:46 PM 62.8°F17.1°C 29.3°F-1.5°C 28% 6.5 mph SW10.5 kmh SW 9.0 mph14.5 kmh 30.04 in1017.3 mb 0.00 in0.0 mm 0.00 in/hr0.0 mm/hr 0.00 in0.0 mm
05:48 PM 63.9°F17.7°C 30.2°F-1.0°C 28% 5.2 mph SW8.4 kmh SW 9.0 mph14.5 kmh 30.05 in1017.6 mb 0.00 in0.0 mm 0.00 in/hr0.0 mm/hr 0.00 in0.0 mm
05:50 PM 62.8°F17.1°C 29.3°F-1.5°C 28% 2.6 mph WSW4.2 kmh WSW 5.0 mph8.0 kmh 30.05 in1017.6 mb 0.00 in0.0 mm 0.00 in/hr0.0 mm/hr 0.00 in0.0 mm
05:52 PM 62.8°F17.1°C 29.3°F-1.5°C 28% 6.5 mph SW10.5 kmh SW 6.0 mph9.7 kmh 30.05 in1017.6 mb 0.00 in0.0 mm 0.00 in/hr0.0 mm/hr 0.00 in0.0 mm
05:54 PM 62.8°F17.1°C 29.3°F-1.5°C 28% 2.6 mph SW4.2 kmh SW 6.0 mph9.7 kmh 30.05 in1017.6 mb 0.00 in0.0 mm 0.00 in/hr0.0 mm/hr 0.00 in0.0 mm
05:56 PM 62.8°F17.1°C 29.3°F-1.5°C 28% 3.9 mph SW6.3 kmh SW 6.0 mph9.7 kmh 30.05 in1017.6 mb 0.00 in0.0 mm 0.00 in/hr0.0 mm/hr 0.00 in0.0 mm
05:58 PM 63.9°F17.7°C 30.2°F-1.0°C 28% 7.8 mph W12.6 kmh W 6.0 mph9.7 kmh 30.06 in1017.9 mb 0.00 in0.0 mm 0.00 in/hr0.0 mm/hr 0.00 in0.0 mm
06:00 PM 62.8°F17.1°C 29.3°F-1.5°C 28% 5.2 mph WNW8.4 kmh WNW 6.0 mph9.7 kmh 30.06 in1017.9 mb 0.00 in0.0 mm 0.00 in/hr0.0 mm/hr 0.00 in0.0 mm
06:02 PM 62.8°F17.1°C 29.3°F-1.5°C 28% 5.2 mph WSW8.4 kmh WSW 6.0 mph9.7 kmh 30.06 in1017.9 mb 0.00 in0.0 mm 0.00 in/hr0.0 mm/hr 0.00 in0.0 mm
06:04 PM 62.8°F17.1°C 29.3°F-1.5°C 28% 3.9 mph WNW6.3 kmh WNW 6.0 mph9.7 kmh 30.06 in1017.9 mb 0.00 in0.0 mm 0.00 in/hr0.0 mm/hr 0.00 in0.0 mm
06:06 PM 62.8°F17.1°C 29.3°F-1.5°C 28% 2.6 mph SW4.2 kmh SW 5.0 mph8.0 kmh 30.06 in1017.9 mb 0.00 in0.0 mm 0.00 in/hr0.0 mm/hr 0.00 in0.0 mm
06:08 PM 62.8°F17.1°C 29.3°F-1.5°C 28% 2.6 mph SW4.2 kmh SW 5.0 mph8.0 kmh 30.07 in1018.3 mb 0.00 in0.0 mm 0.00 in/hr0.0 mm/hr 0.00 in0.0 mm
06:10 PM 62.8°F17.1°C 29.3°F-1.5°C 28% 3.9 mph WNW6.3 kmh WNW 5.0 mph8.0 kmh 30.07 in1018.3 mb 0.00 in0.0 mm 0.00 in/hr0.0 mm/hr 0.00 in0.0 mm
06:12 PM 62.8°F17.1°C 29.3°F-1.5°C 28% 3.9 mph W6.3 kmh W 4.0 mph6.4 kmh 30.07 in1018.3 mb 0.00 in0.0 mm 0.00 in/hr0.0 mm/hr 0.00 in0.0 mm
06:14 PM 62.8°F17.1°C 29.3°F-1.5°C 28% 1.3 mph WNW2.1 kmh WNW 4.0 mph6.4 kmh 30.07 in1018.3 mb 0.00 in0.0 mm 0.00 in/hr0.0 mm/hr 0.00 in0.0 mm
06:16 PM 62.8°F17.1°C 29.3°F-1.5°C 28% 3.9 mph WNW6.3 kmh WNW 4.0 mph6.4 kmh 30.07 in1018.3 mb 0.00 in0.0 mm 0.00 in/hr0.0 mm/hr 0.00 in0.0 mm
06:18 PM 63.9°F17.7°C 30.2°F-1.0°C 28% 2.6 mph ESE4.2 kmh ESE 4.0 mph6.4 kmh 30.07 in1018.3 mb 0.00 in0.0 mm 0.00 in/hr0.0 mm/hr 0.00 in0.0 mm
06:20 PM 62.8°F17.1°C 29.3°F-1.5°C 28% Calm Calm 3.0 mph4.8 kmh 30.07 in1018.3 mb 0.00 in0.0 mm 0.00 in/hr0.0 mm/hr 0.00 in0.0 mm
06:22 PM 63.9°F17.7°C 30.2°F-1.0°C 28% 1.3 mph ESE2.1 kmh ESE 3.0 mph4.8 kmh 30.07 in1018.3 mb 0.00 in0.0 mm 0.00 in/hr0.0 mm/hr 0.00 in0.0 mm
06:24 PM 63.9°F17.7°C 30.2°F-1.0°C 28% 2.6 mph ESE4.2 kmh ESE 4.0 mph6.4 kmh 30.07 in1018.3 mb 0.00 in0.0 mm 0.00 in/hr0.0 mm/hr 0.00 in0.0 mm
06:26 PM 62.8°F17.1°C 29.3°F-1.5°C 28% 3.9 mph ESE6.3 kmh ESE 4.0 mph6.4 kmh 30.07 in1018.3 mb 0.00 in0.0 mm 0.00 in/hr0.0 mm/hr 0.00 in0.0 mm
06:28 PM 62.8°F17.1°C 29.3°F-1.5°C 28% 5.2 mph SE8.4 kmh SE 4.0 mph6.4 kmh 30.07 in1018.3 mb 0.00 in0.0 mm 0.00 in/hr0.0 mm/hr 0.00 in0.0 mm
06:30 PM 62.8°F17.1°C 29.3°F-1.5°C 28% 3.9 mph SE6.3 kmh SE 4.0 mph6.4 kmh 30.07 in1018.3 mb 0.00 in0.0 mm 0.00 in/hr0.0 mm/hr 0.00 in0.0 mm
06:32 PM 61.8°F16.6°C 28.4°F-2.0°C 28% 2.6 mph SE4.2 kmh SE 4.0 mph6.4 kmh 30.07 in1018.3 mb 0.00 in0.0 mm 0.00 in/hr0.0 mm/hr 0.00 in0.0 mm
06:34 PM 61.8°F16.6°C 29.2°F-1.6°C 29% 5.2 mph ESE8.4 kmh ESE 5.0 mph8.0 kmh 30.07 in1018.3 mb 0.00 in0.0 mm 0.00 in/hr0.0 mm/hr 0.00 in0.0 mm
06:36 PM 61.8°F16.6°C 29.2°F-1.6°C 29% 3.9 mph SE6.3 kmh SE 5.0 mph8.0 kmh 30.07 in1018.3 mb 0.00 in0.0 mm 0.00 in/hr0.0 mm/hr 0.00 in0.0 mm
06:38 PM 61.8°F16.6°C 29.2°F-1.6°C 29% Calm Calm 5.0 mph8.0 kmh 30.08 in1018.6 mb 0.00 in0.0 mm 0.00 in/hr0.0 mm/hr 0.00 in0.0 mm
06:40 PM 61.8°F16.6°C 29.2°F-1.6°C 29% 2.6 mph SE4.2 kmh SE 3.0 mph4.8 kmh 30.08 in1018.6 mb 0.00 in0.0 mm 0.00 in/hr0.0 mm/hr 0.00 in0.0 mm
06:42 PM 61.8°F16.6°C 29.2°F-1.6°C 29% 2.6 mph SSW4.2 kmh SSW 5.0 mph8.0 kmh 30.08 in1018.6 mb 0.00 in0.0 mm 0.00 in/hr0.0 mm/hr 0.00 in0.0 mm
06:44 PM 61.8°F16.6°C 29.2°F-1.6°C 29% 3.9 mph S6.3 kmh S 5.0 mph8.0 kmh 30.08 in1018.6 mb 0.00 in0.0 mm 0.00 in/hr0.0 mm/hr 0.00 in0.0 mm
06:46 PM 61.8°F16.6°C 29.2°F-1.6°C 29% 2.6 mph SSE4.2 kmh SSE 5.0 mph8.0 kmh 30.08 in1018.6 mb 0.00 in0.0 mm 0.00 in/hr0.0 mm/hr 0.00 in0.0 mm
06:48 PM 61.8°F16.6°C 29.2°F-1.6°C 29% 1.3 mph SSE2.1 kmh SSE 4.0 mph6.4 kmh 30.09 in1019.0 mb 0.00 in0.0 mm 0.00 in/hr0.0 mm/hr 0.00 in0.0 mm
06:50 PM 60.8°F16.0°C 28.3°F-2.1°C 29% 2.6 mph SSE4.2 kmh SSE 4.0 mph6.4 kmh 30.09 in1019.0 mb 0.00 in0.0 mm 0.00 in/hr0.0 mm/hr 0.00 in0.0 mm
06:52 PM 60.8°F16.0°C 28.3°F-2.1°C 29% 3.9 mph SE6.3 kmh SE 3.0 mph4.8 kmh 30.09 in1019.0 mb 0.00 in0.0 mm 0.00 in/hr0.0 mm/hr 0.00 in0.0 mm
06:54 PM 60.8°F16.0°C 28.3°F-2.1°C 29% 1.3 mph SE2.1 kmh SE 3.0 mph4.8 kmh 30.09 in1019.0 mb 0.00 in0.0 mm 0.00 in/hr0.0 mm/hr 0.00 in0.0 mm
06:56 PM 59.7°F15.4°C 27.5°F-2.5°C 29% 1.3 mph SE2.1 kmh SE 3.0 mph4.8 kmh 30.09 in1019.0 mb 0.00 in0.0 mm 0.00 in/hr0.0 mm/hr 0.00 in0.0 mm
06:58 PM 59.7°F15.4°C 27.5°F-2.5°C 29% 1.3 mph SE2.1 kmh SE 3.0 mph4.8 kmh 30.10 in1019.3 mb 0.00 in0.0 mm 0.00 in/hr0.0 mm/hr 0.00 in0.0 mm
07:00 PM 59.7°F15.4°C 28.3°F-2.1°C 30% 3.9 mph SE6.3 kmh SE 3.0 mph4.8 kmh 30.10 in1019.3 mb 0.00 in0.0 mm 0.00 in/hr0.0 mm/hr 0.00 in0.0 mm
07:02 PM 58.7°F14.8°C 27.4°F-2.6°C 30% 3.9 mph SE6.3 kmh SE 3.0 mph4.8 kmh 30.10 in1019.3 mb 0.00 in0.0 mm 0.00 in/hr0.0 mm/hr 0.00 in0.0 mm
07:04 PM 58.7°F14.8°C 28.2°F-2.1°C 31% 3.9 mph SE6.3 kmh SE 3.0 mph4.8 kmh 30.10 in1019.3 mb 0.00 in0.0 mm 0.00 in/hr0.0 mm/hr 0.00 in0.0 mm
07:06 PM 57.7°F14.3°C 27.3°F-2.6°C 31% 2.6 mph SE4.2 kmh SE 3.0 mph4.8 kmh 30.10 in1019.3 mb 0.00 in0.0 mm 0.00 in/hr0.0 mm/hr 0.00 in0.0 mm
07:08 PM 57.7°F14.3°C 28.1°F-2.2°C 32% 2.6 mph SE4.2 kmh SE 4.0 mph6.4 kmh 30.11 in1019.6 mb 0.00 in0.0 mm 0.00 in/hr0.0 mm/hr 0.00 in0.0 mm
07:10 PM 56.7°F13.7°C 27.2°F-2.7°C 32% 5.2 mph SE8.4 kmh SE 4.0 mph6.4 kmh 30.11 in1019.6 mb 0.00 in0.0 mm 0.00 in/hr0.0 mm/hr 0.00 in0.0 mm
07:12 PM 56.7°F13.7°C 27.9°F-2.3°C 33% 3.9 mph SE6.3 kmh SE 4.0 mph6.4 kmh 30.11 in1019.6 mb 0.00 in0.0 mm 0.00 in/hr0.0 mm/hr 0.00 in0.0 mm
07:14 PM 55.6°F13.1°C 27.0°F-2.8°C 33% 5.2 mph SE8.4 kmh SE 4.0 mph6.4 kmh 30.11 in1019.6 mb 0.00 in0.0 mm 0.00 in/hr0.0 mm/hr 0.00 in0.0 mm
07:16 PM 55.6°F13.1°C 27.0°F-2.8°C 33% 3.9 mph SE6.3 kmh SE 4.0 mph6.4 kmh 30.11 in1019.6 mb 0.00 in0.0 mm 0.00 in/hr0.0 mm/hr 0.00 in0.0 mm
07:18 PM 55.6°F13.1°C 27.0°F-2.8°C 33% 5.2 mph SE8.4 kmh SE 4.0 mph6.4 kmh 30.12 in1020.0 mb 0.00 in0.0 mm 0.00 in/hr0.0 mm/hr 0.00 in0.0 mm
07:20 PM 54.6°F12.6°C 26.8°F-2.9°C 34% 5.2 mph SE8.4 kmh SE 5.0 mph8.0 kmh 30.12 in1020.0 mb 0.00 in0.0 mm 0.00 in/hr0.0 mm/hr 0.00 in0.0 mm
07:22 PM 53.6°F12.0°C 25.9°F-3.4°C 34% 3.9 mph SE6.3 kmh SE 5.0 mph8.0 kmh 30.12 in1020.0 mb 0.00 in0.0 mm 0.00 in/hr0.0 mm/hr 0.00 in0.0 mm
07:24 PM 53.6°F12.0°C 25.9°F-3.4°C 34% 1.3 mph SE2.1 kmh SE 5.0 mph8.0 kmh 30.12 in1020.0 mb 0.00 in0.0 mm 0.00 in/hr0.0 mm/hr 0.00 in0.0 mm
07:26 PM 53.6°F12.0°C 27.3°F-2.6°C 36% 3.9 mph SE6.3 kmh SE 4.0 mph6.4 kmh 30.12 in1020.0 mb 0.00 in0.0 mm 0.00 in/hr0.0 mm/hr 0.00 in0.0 mm
07:28 PM 53.6°F12.0°C 27.3°F-2.6°C 36% 5.2 mph ESE8.4 kmh ESE 4.0 mph6.4 kmh 30.14 in1020.7 mb 0.00 in0.0 mm 0.00 in/hr0.0 mm/hr 0.00 in0.0 mm
07:30 PM 52.5°F11.4°C 25.7°F-3.5°C 35% 5.2 mph ESE8.4 kmh ESE 4.0 mph6.4 kmh 30.14 in1020.7 mb 0.00 in0.0 mm 0.00 in/hr0.0 mm/hr 0.00 in0.0 mm
07:32 PM 52.5°F11.4°C 25.7°F-3.5°C 35% 5.2 mph ESE8.4 kmh ESE 4.0 mph6.4 kmh 30.14 in1020.7 mb 0.00 in0.0 mm 0.00 in/hr0.0 mm/hr 0.00 in0.0 mm
07:34 PM 52.5°F11.4°C 25.7°F-3.5°C 35% 5.2 mph ESE8.4 kmh ESE 4.0 mph6.4 kmh 30.14 in1020.7 mb 0.00 in0.0 mm 0.00 in/hr0.0 mm/hr 0.00 in0.0 mm
07:36 PM 52.5°F11.4°C 25.7°F-3.5°C 35% 3.9 mph SE6.3 kmh SE 4.0 mph6.4 kmh 30.14 in1020.7 mb 0.00 in0.0 mm 0.00 in/hr0.0 mm/hr 0.00 in0.0 mm
07:38 PM 52.5°F11.4°C 25.7°F-3.5°C 35% 3.9 mph SE6.3 kmh SE 4.0 mph6.4 kmh 30.15 in1021.0 mb 0.00 in0.0 mm 0.00 in/hr0.0 mm/hr 0.00 in0.0 mm
07:40 PM 51.5°F10.8°C 25.5°F-3.6°C 36% 2.6 mph SE4.2 kmh SE 4.0 mph6.4 kmh 30.15 in1021.0 mb 0.00 in0.0 mm 0.00 in/hr0.0 mm/hr 0.00 in0.0 mm
07:42 PM 51.5°F10.8°C 25.5°F-3.6°C 36% 3.9 mph SE6.3 kmh SE 4.0 mph6.4 kmh 30.15 in1021.0 mb 0.00 in0.0 mm 0.00 in/hr0.0 mm/hr 0.00 in0.0 mm
07:44 PM 51.5°F10.8°C 26.1°F-3.3°C 37% 5.2 mph SE8.4 kmh SE 5.0 mph8.0 kmh 30.15 in1021.0 mb 0.00 in0.0 mm 0.00 in/hr0.0 mm/hr 0.00 in0.0 mm
07:46 PM 51.5°F10.8°C 26.1°F-3.3°C 37% 5.2 mph SE8.4 kmh SE 5.0 mph8.0 kmh 30.15 in1021.0 mb 0.00 in0.0 mm 0.00 in/hr0.0 mm/hr 0.00 in0.0 mm
07:48 PM 51.5°F10.8°C 26.1°F-3.3°C 37% 5.2 mph SE8.4 kmh SE 5.0 mph8.0 kmh 30.16 in1021.3 mb 0.00 in0.0 mm 0.00 in/hr0.0 mm/hr 0.00 in0.0 mm
07:50 PM 50.5°F10.3°C 25.2°F-3.8°C 37% 5.2 mph SE8.4 kmh SE 5.0 mph8.0 kmh 30.16 in1021.3 mb 0.00 in0.0 mm 0.00 in/hr0.0 mm/hr 0.00 in0.0 mm
07:52 PM 50.5°F10.3°C 25.2°F-3.8°C 37% 2.6 mph SE4.2 kmh SE 5.0 mph8.0 kmh 30.16 in1021.3 mb 0.00 in0.0 mm 0.00 in/hr0.0 mm/hr 0.00 in0.0 mm
07:54 PM 50.5°F10.3°C 25.2°F-3.8°C 37% 3.9 mph SE6.3 kmh SE 5.0 mph8.0 kmh 30.16 in1021.3 mb 0.00 in0.0 mm 0.00 in/hr0.0 mm/hr 0.00 in0.0 mm
07:56 PM 50.5°F10.3°C 25.2°F-3.8°C 37% 6.5 mph SE10.5 kmh SE 5.0 mph8.0 kmh 30.16 in1021.3 mb 0.00 in0.0 mm 0.00 in/hr0.0 mm/hr 0.00 in0.0 mm
07:58 PM 49.4°F9.7°C 24.3°F-4.3°C 37% 2.6 mph SE4.2 kmh SE 5.0 mph8.0 kmh 30.17 in1021.7 mb 0.00 in0.0 mm 0.00 in/hr0.0 mm/hr 0.00 in0.0 mm
08:00 PM 49.4°F9.7°C 24.9°F-3.9°C 38% 3.9 mph ESE6.3 kmh ESE 5.0 mph8.0 kmh 30.17 in1021.7 mb 0.00 in0.0 mm 0.00 in/hr0.0 mm/hr 0.00 in0.0 mm
08:02 PM 48.4°F9.1°C 24.0°F-4.4°C 38% 3.9 mph ESE6.3 kmh ESE 4.0 mph6.4 kmh 30.17 in1021.7 mb 0.00 in0.0 mm 0.00 in/hr0.0 mm/hr 0.00 in0.0 mm
08:04 PM 48.4°F9.1°C 24.0°F-4.4°C 38% 5.2 mph ESE8.4 kmh ESE 4.0 mph6.4 kmh 30.17 in1021.7 mb 0.00 in0.0 mm 0.00 in/hr0.0 mm/hr 0.00 in0.0 mm
08:06 PM 47.4°F8.6°C 23.7°F-4.6°C 39% 5.2 mph SE8.4 kmh SE 4.0 mph6.4 kmh 30.17 in1021.7 mb 0.00 in0.0 mm 0.00 in/hr0.0 mm/hr 0.00 in0.0 mm
08:08 PM 47.4°F8.6°C 23.7°F-4.6°C 39% 5.2 mph SE8.4 kmh SE 5.0 mph8.0 kmh 30.17 in1021.7 mb 0.00 in0.0 mm 0.00 in/hr0.0 mm/hr 0.00 in0.0 mm
08:10 PM 47.4°F8.6°C 24.3°F-4.3°C 40% 5.2 mph SE8.4 kmh SE 6.0 mph9.7 kmh 30.17 in1021.7 mb 0.00 in0.0 mm 0.00 in/hr0.0 mm/hr 0.00 in0.0 mm
08:12 PM 47.4°F8.6°C 24.9°F-3.9°C 41% 5.2 mph SE8.4 kmh SE 6.0 mph9.7 kmh 30.17 in1021.7 mb 0.00 in0.0 mm 0.00 in/hr0.0 mm/hr 0.00 in0.0 mm
08:14 PM 47.4°F8.6°C 24.3°F-4.3°C 40% 5.2 mph ESE8.4 kmh ESE 6.0 mph9.7 kmh 30.17 in1021.7 mb 0.00 in0.0 mm 0.00 in/hr0.0 mm/hr 0.00 in0.0 mm
08:16 PM 46.4°F8.0°C 23.4°F-4.8°C 40% 3.9 mph SE6.3 kmh SE 5.0 mph8.0 kmh 30.17 in1021.7 mb 0.00 in0.0 mm 0.00 in/hr0.0 mm/hr 0.00 in0.0 mm
08:18 PM 46.4°F8.0°C 23.4°F-4.8°C 40% 3.9 mph ESE6.3 kmh ESE 4.0 mph6.4 kmh 30.19 in1022.4 mb 0.00 in0.0 mm 0.00 in/hr0.0 mm/hr 0.00 in0.0 mm
08:20 PM 45.3°F7.4°C 23.0°F-5.0°C 41% 5.2 mph ESE8.4 kmh ESE 5.0 mph8.0 kmh 30.19 in1022.4 mb 0.00 in0.0 mm 0.00 in/hr0.0 mm/hr 0.00 in0.0 mm
08:22 PM 45.3°F7.4°C 23.6°F-4.7°C 42% 3.9 mph SE6.3 kmh SE 5.0 mph8.0 kmh 30.19 in1022.4 mb 0.00 in0.0 mm 0.00 in/hr0.0 mm/hr 0.00 in0.0 mm
08:24 PM 45.3°F7.4°C 23.6°F-4.7°C 42% 5.2 mph SE8.4 kmh SE 5.0 mph8.0 kmh 30.19 in1022.4 mb 0.00 in0.0 mm 0.00 in/hr0.0 mm/hr 0.00 in0.0 mm
08:26 PM 45.3°F7.4°C 24.2°F-4.3°C 43% 3.9 mph SE6.3 kmh SE 5.0 mph8.0 kmh 30.19 in1022.4 mb 0.00 in0.0 mm 0.00 in/hr0.0 mm/hr 0.00 in0.0 mm
08:28 PM 45.3°F7.4°C 24.2°F-4.3°C 43% 2.6 mph SE4.2 kmh SE 5.0 mph8.0 kmh 30.19 in1022.4 mb 0.00 in0.0 mm 0.00 in/hr0.0 mm/hr 0.00 in0.0 mm
08:30 PM 45.3°F7.4°C 24.2°F-4.3°C 43% 1.3 mph SE2.1 kmh SE 4.0 mph6.4 kmh 30.19 in1022.4 mb 0.00 in0.0 mm 0.00 in/hr0.0 mm/hr 0.00 in0.0 mm
08:32 PM 44.3°F6.8°C 22.7°F-5.2°C 42% 1.3 mph SE2.1 kmh SE 4.0 mph6.4 kmh 30.19 in1022.4 mb 0.00 in0.0 mm 0.00 in/hr0.0 mm/hr 0.00 in0.0 mm
08:34 PM 44.3°F6.8°C 23.2°F-4.9°C 43% 1.3 mph SE2.1 kmh SE 3.0 mph4.8 kmh 30.19 in1022.4 mb 0.00 in0.0 mm 0.00 in/hr0.0 mm/hr 0.00 in0.0 mm
08:36 PM 44.3°F6.8°C 23.8°F-4.6°C 44% 1.3 mph SSE2.1 kmh SSE 2.0 mph3.2 kmh 30.19 in1022.4 mb 0.00 in0.0 mm 0.00 in/hr0.0 mm/hr 0.00 in0.0 mm
08:38 PM 44.3°F6.8°C 23.8°F-4.6°C 44% Calm Calm 4.0 mph6.4 kmh 30.20 in1022.7 mb 0.00 in0.0 mm 0.00 in/hr0.0 mm/hr 0.00 in0.0 mm
08:40 PM 44.3°F6.8°C 24.8°F-4.0°C 46% 1.3 mph SSE2.1 kmh SSE 4.0 mph6.4 kmh 30.20 in1022.7 mb 0.00 in0.0 mm 0.00 in/hr0.0 mm/hr 0.00 in0.0 mm
08:42 PM 44.3°F6.8°C 24.8°F-4.0°C 46% Calm Calm 3.0 mph4.8 kmh 30.20 in1022.7 mb 0.00 in0.0 mm 0.00 in/hr0.0 mm/hr 0.00 in0.0 mm
08:44 PM 44.3°F6.8°C 24.8°F-4.0°C 46% Calm Calm 3.0 mph4.8 kmh 30.20 in1022.7 mb 0.00 in0.0 mm 0.00 in/hr0.0 mm/hr 0.00 in0.0 mm
08:46 PM 44.3°F6.8°C 24.8°F-4.0°C 46% Calm Calm 2.0 mph3.2 kmh 30.20 in1022.7 mb 0.00 in0.0 mm 0.00 in/hr0.0 mm/hr 0.00 in0.0 mm
08:48 PM 44.3°F6.8°C 24.8°F-4.0°C 46% Calm Calm 2.0 mph3.2 kmh 30.20 in1022.7 mb 0.00 in0.0 mm 0.00 in/hr0.0 mm/hr 0.00 in0.0 mm
08:50 PM 44.3°F6.8°C 24.8°F-4.0°C 46% 1.3 mph SE2.1 kmh SE 3.0 mph4.8 kmh 30.20 in1022.7 mb 0.00 in0.0 mm 0.00 in/hr0.0 mm/hr 0.00 in0.0 mm
08:52 PM 43.3°F6.3°C 23.9°F-4.5°C 46% 3.9 mph SE6.3 kmh SE 3.0 mph4.8 kmh 30.20 in1022.7 mb 0.00 in0.0 mm 0.00 in/hr0.0 mm/hr 0.00 in0.0 mm
08:54 PM 44.3°F6.8°C 24.8°F-4.0°C 46% 3.9 mph SE6.3 kmh SE 4.0 mph6.4 kmh 30.20 in1022.7 mb 0.00 in0.0 mm 0.00 in/hr0.0 mm/hr 0.00 in0.0 mm
08:56 PM 44.3°F6.8°C 24.8°F-4.0°C 46% 3.9 mph SE6.3 kmh SE 5.0 mph8.0 kmh 30.20 in1022.7 mb 0.00 in0.0 mm 0.00 in/hr0.0 mm/hr 0.00 in0.0 mm
08:58 PM 44.3°F6.8°C 24.8°F-4.0°C 46% 2.6 mph SE4.2 kmh SE 5.0 mph8.0 kmh 30.21 in1023.0 mb 0.00 in0.0 mm 0.00 in/hr0.0 mm/hr 0.00 in0.0 mm
09:00 PM 44.3°F6.8°C 24.8°F-4.0°C 46% 2.6 mph SE4.2 kmh SE 4.0 mph6.4 kmh 30.21 in1023.0 mb 0.00 in0.0 mm 0.00 in/hr0.0 mm/hr 0.00 in0.0 mm
09:02 PM 44.3°F6.8°C 24.8°F-4.0°C 46% 2.6 mph SE4.2 kmh SE 4.0 mph6.4 kmh 30.21 in1023.0 mb 0.00 in0.0 mm 0.00 in/hr0.0 mm/hr 0.00 in0.0 mm
09:04 PM 43.3°F6.3°C 23.9°F-4.5°C 46% Calm Calm 4.0 mph6.4 kmh 30.21 in1023.0 mb 0.00 in0.0 mm 0.00 in/hr0.0 mm/hr 0.00 in0.0 mm
09:06 PM 43.3°F6.3°C 23.9°F-4.5°C 46% Calm Calm 4.0 mph6.4 kmh 30.21 in1023.0 mb 0.00 in0.0 mm 0.00 in/hr0.0 mm/hr 0.00 in0.0 mm
09:08 PM 43.3°F6.3°C 23.9°F-4.5°C 46% Calm Calm 1.0 mph1.6 kmh 30.21 in1023.0 mb 0.00 in0.0 mm 0.00 in/hr0.0 mm/hr 0.00 in0.0 mm
09:10 PM 43.3°F6.3°C 23.9°F-4.5°C 46% Calm Calm 1.0 mph1.6 kmh 30.21 in1023.0 mb 0.00 in0.0 mm 0.00 in/hr0.0 mm/hr 0.00 in0.0 mm
09:12 PM 42.2°F5.7°C 21.9°F-5.6°C 44% 5.2 mph SW8.4 kmh SW 4.0 mph6.4 kmh 30.21 in1023.0 mb 0.00 in0.0 mm 0.00 in/hr0.0 mm/hr 0.00 in0.0 mm
09:14 PM 42.2°F5.7°C 21.4°F-5.9°C 43% 3.9 mph SW6.3 kmh SW 4.0 mph6.4 kmh 30.21 in1023.0 mb 0.00 in0.0 mm 0.00 in/hr0.0 mm/hr 0.00 in0.0 mm
09:16 PM 41.2°F5.1°C 21.0°F-6.1°C 44% 2.6 mph SW4.2 kmh SW 4.0 mph6.4 kmh 30.21 in1023.0 mb 0.00 in0.0 mm 0.00 in/hr0.0 mm/hr 0.00 in0.0 mm
09:18 PM 41.2°F5.1°C 21.0°F-6.1°C 44% 1.3 mph SW2.1 kmh SW 3.0 mph4.8 kmh 30.22 in1023.4 mb 0.00 in0.0 mm 0.00 in/hr0.0 mm/hr 0.00 in0.0 mm
09:20 PM 40.2°F4.6°C 20.0°F-6.7°C 44% Calm Calm 3.0 mph4.8 kmh 30.22 in1023.4 mb 0.00 in0.0 mm 0.00 in/hr0.0 mm/hr 0.00 in0.0 mm
09:22 PM 40.2°F4.6°C 20.5°F-6.4°C 45% Calm Calm 2.0 mph3.2 kmh 30.22 in1023.4 mb 0.00 in0.0 mm 0.00 in/hr0.0 mm/hr 0.00 in0.0 mm
09:24 PM 40.2°F4.6°C 20.5°F-6.4°C 45% 1.3 mph SW2.1 kmh SW 1.0 mph1.6 kmh 30.22 in1023.4 mb 0.00 in0.0 mm 0.00 in/hr0.0 mm/hr 0.00 in0.0 mm
09:26 PM 39.1°F3.9°C 20.1°F-6.6°C 46% Calm Calm 2.0 mph3.2 kmh 30.22 in1023.4 mb 0.00 in0.0 mm 0.00 in/hr0.0 mm/hr 0.00 in0.0 mm
09:28 PM 40.2°F4.6°C 21.6°F-5.8°C 47% Calm Calm 2.0 mph3.2 kmh 30.23 in1023.7 mb 0.00 in0.0 mm 0.00 in/hr0.0 mm/hr 0.00 in0.0 mm
09:30 PM 39.1°F3.9°C 20.6°F-6.3°C 47% Calm Calm 1.0 mph1.6 kmh 30.23 in1023.7 mb 0.00 in0.0 mm 0.00 in/hr0.0 mm/hr 0.00 in0.0 mm
09:32 PM 39.1°F3.9°C 20.6°F-6.3°C 47% Calm Calm 1.0 mph1.6 kmh 30.23 in1023.7 mb 0.00 in0.0 mm 0.00 in/hr0.0 mm/hr 0.00 in0.0 mm
09:34 PM 39.1°F3.9°C 21.1°F-6.1°C 48% Calm Calm -- 30.23 in1023.7 mb 0.00 in0.0 mm 0.00 in/hr0.0 mm/hr 0.00 in0.0 mm
09:36 PM 39.1°F3.9°C 21.1°F-6.1°C 48% Calm Calm -- 30.23 in1023.7 mb 0.00 in0.0 mm 0.00 in/hr0.0 mm/hr 0.00 in0.0 mm
09:38 PM 39.1°F3.9°C 21.6°F-5.8°C 49% Calm Calm -- 30.23 in1023.7 mb 0.00 in0.0 mm 0.00 in/hr0.0 mm/hr 0.00 in0.0 mm
09:40 PM 39.1°F3.9°C 22.1°F-5.5°C 50% Calm Calm 1.0 mph1.6 kmh 30.23 in1023.7 mb 0.00 in0.0 mm 0.00 in/hr0.0 mm/hr 0.00 in0.0 mm
09:42 PM 39.1°F3.9°C 22.6°F-5.2°C 51% 3.9 mph SE6.3 kmh SE 3.0 mph4.8 kmh 30.23 in1023.7 mb 0.00 in0.0 mm 0.00 in/hr0.0 mm/hr 0.00 in0.0 mm
09:44 PM 39.1°F3.9°C 22.6°F-5.2°C 51% Calm Calm 3.0 mph4.8 kmh 30.23 in1023.7 mb 0.00 in0.0 mm 0.00 in/hr0.0 mm/hr 0.00 in0.0 mm
09:46 PM 39.1°F3.9°C 22.6°F-5.2°C 51% Calm Calm 3.0 mph4.8 kmh 30.23 in1023.7 mb 0.00 in0.0 mm 0.00 in/hr0.0 mm/hr 0.00 in0.0 mm
09:48 PM 39.1°F3.9°C 22.1°F-5.5°C 50% 3.9 mph W6.3 kmh W 4.0 mph6.4 kmh 30.23 in1023.7 mb 0.00 in0.0 mm 0.00 in/hr0.0 mm/hr 0.00 in0.0 mm
09:50 PM 39.1°F3.9°C 22.6°F-5.2°C 51% 5.2 mph W8.4 kmh W 4.0 mph6.4 kmh 30.23 in1023.7 mb 0.00 in0.0 mm 0.00 in/hr0.0 mm/hr 0.00 in0.0 mm
09:52 PM 39.1°F3.9°C 22.6°F-5.2°C 51% 5.2 mph W8.4 kmh W 5.0 mph8.0 kmh 30.23 in1023.7 mb 0.00 in0.0 mm 0.00 in/hr0.0 mm/hr 0.00 in0.0 mm
09:54 PM 39.1°F3.9°C 22.6°F-5.2°C 51% 2.6 mph WSW4.2 kmh WSW 5.0 mph8.0 kmh 30.23 in1023.7 mb 0.00 in0.0 mm 0.00 in/hr0.0 mm/hr 0.00 in0.0 mm
09:56 PM 39.1°F3.9°C 22.6°F-5.2°C 51% 3.9 mph WSW6.3 kmh WSW 5.0 mph8.0 kmh 30.23 in1023.7 mb 0.00 in0.0 mm 0.00 in/hr0.0 mm/hr 0.00 in0.0 mm
09:58 PM 40.2°F4.6°C 23.5°F-4.7°C 51% 3.9 mph WSW6.3 kmh WSW 4.0 mph6.4 kmh 30.23 in1023.7 mb 0.00 in0.0 mm 0.00 in/hr0.0 mm/hr 0.00 in0.0 mm
10:00 PM 39.1°F3.9°C 23.0°F-5.0°C 52% 2.6 mph WSW4.2 kmh WSW 4.0 mph6.4 kmh 30.23 in1023.7 mb 0.00 in0.0 mm 0.00 in/hr0.0 mm/hr 0.00 in0.0 mm
10:02 PM 39.1°F3.9°C 23.0°F-5.0°C 52% 2.6 mph WSW4.2 kmh WSW 3.0 mph4.8 kmh 30.23 in1023.7 mb 0.00 in0.0 mm 0.00 in/hr0.0 mm/hr 0.00 in0.0 mm
10:04 PM 39.1°F3.9°C 23.0°F-5.0°C 52% 2.6 mph WSW4.2 kmh WSW 3.0 mph4.8 kmh 30.23 in1023.7 mb 0.00 in0.0 mm 0.00 in/hr0.0 mm/hr 0.00 in0.0 mm
10:06 PM 39.1°F3.9°C 23.0°F-5.0°C 52% 2.6 mph WSW4.2 kmh WSW 3.0 mph4.8 kmh 30.23 in1023.7 mb 0.00 in0.0 mm 0.00 in/hr0.0 mm/hr 0.00 in0.0 mm
10:08 PM 39.1°F3.9°C 23.0°F-5.0°C 52% 3.9 mph WSW6.3 kmh WSW 3.0 mph4.8 kmh 30.23 in1023.7 mb 0.00 in0.0 mm 0.00 in/hr0.0 mm/hr 0.00 in0.0 mm
10:10 PM 39.1°F3.9°C 23.5°F-4.7°C 53% 3.9 mph WSW6.3 kmh WSW 4.0 mph6.4 kmh 30.23 in1023.7 mb 0.00 in0.0 mm 0.00 in/hr0.0 mm/hr 0.00 in0.0 mm
10:12 PM 39.1°F3.9°C 23.5°F-4.7°C 53% 2.6 mph WSW4.2 kmh WSW 4.0 mph6.4 kmh 30.23 in1023.7 mb 0.00 in0.0 mm 0.00 in/hr0.0 mm/hr 0.00 in0.0 mm
10:14 PM 39.1°F3.9°C 23.5°F-4.7°C 53% 2.6 mph WSW4.2 kmh WSW 3.0 mph4.8 kmh 30.23 in1023.7 mb 0.00 in0.0 mm 0.00 in/hr0.0 mm/hr 0.00 in0.0 mm
10:16 PM 39.1°F3.9°C 23.9°F-4.5°C 54% 5.2 mph WSW8.4 kmh WSW 4.0 mph6.4 kmh 30.23 in1023.7 mb 0.00 in0.0 mm 0.00 in/hr0.0 mm/hr 0.00 in0.0 mm
10:18 PM 39.1°F3.9°C 23.9°F-4.5°C 54% 3.9 mph WSW6.3 kmh WSW 4.0 mph6.4 kmh 30.23 in1023.7 mb 0.00 in0.0 mm 0.00 in/hr0.0 mm/hr 0.00 in0.0 mm
10:20 PM 39.1°F3.9°C 23.9°F-4.5°C 54% 5.2 mph WSW8.4 kmh WSW 5.0 mph8.0 kmh 30.23 in1023.7 mb 0.00 in0.0 mm 0.00 in/hr0.0 mm/hr 0.00 in0.0 mm
10:22 PM 39.1°F3.9°C 23.0°F-5.0°C 52% 3.9 mph WSW6.3 kmh WSW 5.0 mph8.0 kmh 30.23 in1023.7 mb 0.00 in0.0 mm 0.00 in/hr0.0 mm/hr 0.00 in0.0 mm
10:24 PM 39.1°F3.9°C 23.5°F-4.7°C 53% 3.9 mph W6.3 kmh W 5.0 mph8.0 kmh 30.23 in1023.7 mb 0.00 in0.0 mm 0.00 in/hr0.0 mm/hr 0.00 in0.0 mm
10:26 PM 39.1°F3.9°C 23.9°F-4.5°C 54% 3.9 mph W6.3 kmh W 5.0 mph8.0 kmh 30.23 in1023.7 mb 0.00 in0.0 mm 0.00 in/hr0.0 mm/hr 0.00 in0.0 mm
10:28 PM 39.1°F3.9°C 23.9°F-4.5°C 54% 3.9 mph W6.3 kmh W 4.0 mph6.4 kmh 30.23 in1023.7 mb 0.00 in0.0 mm 0.00 in/hr0.0 mm/hr 0.00 in0.0 mm
10:30 PM 39.1°F3.9°C 23.9°F-4.5°C 54% 2.6 mph W4.2 kmh W 4.0 mph6.4 kmh 30.23 in1023.7 mb 0.00 in0.0 mm 0.00 in/hr0.0 mm/hr 0.00 in0.0 mm
10:32 PM 39.1°F3.9°C 24.4°F-4.2°C 55% 3.9 mph W6.3 kmh W 3.0 mph4.8 kmh 30.23 in1023.7 mb 0.00 in0.0 mm 0.00 in/hr0.0 mm/hr 0.00 in0.0 mm
10:34 PM 39.1°F3.9°C 24.4°F-4.2°C 55% 3.9 mph W6.3 kmh W 3.0 mph4.8 kmh 30.23 in1023.7 mb 0.00 in0.0 mm 0.00 in/hr0.0 mm/hr 0.00 in0.0 mm
10:36 PM 39.1°F3.9°C 24.4°F-4.2°C 55% 3.9 mph W6.3 kmh W 3.0 mph4.8 kmh 30.23 in1023.7 mb 0.00 in0.0 mm 0.00 in/hr0.0 mm/hr 0.00 in0.0 mm
10:38 PM 39.1°F3.9°C 24.4°F-4.2°C 55% 3.9 mph W6.3 kmh W 4.0 mph6.4 kmh 30.23 in1023.7 mb 0.00 in0.0 mm 0.00 in/hr0.0 mm/hr 0.00 in0.0 mm
10:40 PM 39.1°F3.9°C 24.4°F-4.2°C 55% 3.9 mph W6.3 kmh W 4.0 mph6.4 kmh 30.23 in1023.7 mb 0.00 in0.0 mm 0.00 in/hr0.0 mm/hr 0.00 in0.0 mm
10:52 PM 39.1°F3.9°C 24.8°F-4.0°C 56% 2.6 mph SW4.2 kmh SW 2.0 mph3.2 kmh 30.23 in1023.7 mb 0.00 in0.0 mm 0.00 in/hr0.0 mm/hr 0.00 in0.0 mm
10:54 PM 39.1°F3.9°C 24.8°F-4.0°C 56% Calm Calm 1.0 mph1.6 kmh 30.23 in1023.7 mb 0.00 in0.0 mm 0.00 in/hr0.0 mm/hr 0.00 in0.0 mm
10:56 PM 39.1°F3.9°C 24.8°F-4.0°C 56% Calm Calm -- 30.23 in1023.7 mb 0.00 in0.0 mm 0.00 in/hr0.0 mm/hr 0.00 in0.0 mm
10:58 PM 39.1°F3.9°C 24.4°F-4.2°C 55% 2.6 mph SW4.2 kmh SW 2.0 mph3.2 kmh 30.23 in1023.7 mb 0.00 in0.0 mm 0.00 in/hr0.0 mm/hr 0.00 in0.0 mm
11:00 PM 39.1°F3.9°C 24.8°F-4.0°C 56% Calm Calm 1.0 mph1.6 kmh 30.23 in1023.7 mb 0.00 in0.0 mm 0.00 in/hr0.0 mm/hr 0.00 in0.0 mm
11:02 PM 39.1°F3.9°C 24.8°F-4.0°C 56% Calm Calm -- 30.23 in1023.7 mb 0.00 in0.0 mm 0.00 in/hr0.0 mm/hr 0.00 in0.0 mm
11:04 PM 39.1°F3.9°C 25.2°F-3.8°C 57% 2.6 mph SW4.2 kmh SW 2.0 mph3.2 kmh 30.23 in1023.7 mb 0.00 in0.0 mm 0.00 in/hr0.0 mm/hr 0.00 in0.0 mm
11:06 PM 39.1°F3.9°C 25.2°F-3.8°C 57% 1.3 mph SW2.1 kmh SW 2.0 mph3.2 kmh 30.23 in1023.7 mb 0.00 in0.0 mm 0.00 in/hr0.0 mm/hr 0.00 in0.0 mm
11:08 PM 39.1°F3.9°C 25.2°F-3.8°C 57% Calm Calm 1.0 mph1.6 kmh 30.23 in1023.7 mb 0.00 in0.0 mm 0.00 in/hr0.0 mm/hr 0.00 in0.0 mm
11:10 PM 39.1°F3.9°C 25.2°F-3.8°C 57% Calm Calm -- 30.23 in1023.7 mb 0.00 in0.0 mm 0.00 in/hr0.0 mm/hr 0.00 in0.0 mm
11:12 PM 39.1°F3.9°C 25.6°F-3.6°C 58% Calm Calm -- 30.23 in1023.7 mb 0.00 in0.0 mm 0.00 in/hr0.0 mm/hr 0.00 in0.0 mm
11:14 PM 39.1°F3.9°C 25.6°F-3.6°C 58% Calm Calm 1.0 mph1.6 kmh 30.23 in1023.7 mb 0.00 in0.0 mm 0.00 in/hr0.0 mm/hr 0.00 in0.0 mm
11:16 PM 39.1°F3.9°C 25.6°F-3.6°C 58% Calm Calm 1.0 mph1.6 kmh 30.23 in1023.7 mb 0.00 in0.0 mm 0.00 in/hr0.0 mm/hr 0.00 in0.0 mm
11:18 PM 39.1°F3.9°C 26.0°F-3.3°C 59% 2.6 mph SE4.2 kmh SE 3.0 mph4.8 kmh 30.22 in1023.4 mb 0.00 in0.0 mm 0.00 in/hr0.0 mm/hr 0.00 in0.0 mm
11:20 PM 39.1°F3.9°C 26.0°F-3.3°C 59% 1.3 mph SE2.1 kmh SE 2.0 mph3.2 kmh 30.22 in1023.4 mb 0.00 in0.0 mm 0.00 in/hr0.0 mm/hr 0.00 in0.0 mm
11:22 PM 39.1°F3.9°C 25.6°F-3.6°C 58% 1.3 mph SE2.1 kmh SE 2.0 mph3.2 kmh 30.22 in1023.4 mb 0.00 in0.0 mm 0.00 in/hr0.0 mm/hr 0.00 in0.0 mm
11:24 PM 39.1°F3.9°C 25.6°F-3.6°C 58% Calm Calm 2.0 mph3.2 kmh 30.22 in1023.4 mb 0.00 in0.0 mm 0.00 in/hr0.0 mm/hr 0.00 in0.0 mm
11:26 PM 39.1°F3.9°C 25.2°F-3.8°C 57% Calm Calm -- 30.22 in1023.4 mb 0.00 in0.0 mm 0.00 in/hr0.0 mm/hr 0.00 in0.0 mm
11:28 PM 39.1°F3.9°C 25.2°F-3.8°C 57% Calm Calm -- 30.21 in1023.0 mb 0.00 in0.0 mm 0.00 in/hr0.0 mm/hr 0.00 in0.0 mm
11:30 PM 39.1°F3.9°C 25.6°F-3.6°C 58% Calm Calm 1.0 mph1.6 kmh 30.21 in1023.0 mb 0.00 in0.0 mm 0.00 in/hr0.0 mm/hr 0.00 in0.0 mm
11:32 PM 38.1°F3.4°C 24.7°F-4.1°C 58% 1.3 mph SE2.1 kmh SE 2.0 mph3.2 kmh 30.21 in1023.0 mb 0.00 in0.0 mm 0.00 in/hr0.0 mm/hr 0.00 in0.0 mm
11:34 PM 38.1°F3.4°C 24.7°F-4.1°C 58% 1.3 mph SE2.1 kmh SE 2.0 mph3.2 kmh 30.21 in1023.0 mb 0.00 in0.0 mm 0.00 in/hr0.0 mm/hr 0.00 in0.0 mm
11:36 PM 38.1°F3.4°C 24.2°F-4.3°C 57% Calm Calm 1.0 mph1.6 kmh 30.21 in1023.0 mb 0.00 in0.0 mm 0.00 in/hr0.0 mm/hr 0.00 in0.0 mm
11:38 PM 38.1°F3.4°C 24.2°F-4.3°C 57% Calm Calm -- 30.21 in1023.0 mb 0.00 in0.0 mm 0.00 in/hr0.0 mm/hr 0.00 in0.0 mm
11:40 PM 38.1°F3.4°C 24.7°F-4.1°C 58% Calm Calm -- 30.21 in1023.0 mb 0.00 in0.0 mm 0.00 in/hr0.0 mm/hr 0.00 in0.0 mm
11:42 PM 38.1°F3.4°C 24.7°F-4.1°C 58% Calm Calm 2.0 mph3.2 kmh 30.21 in1023.0 mb 0.00 in0.0 mm 0.00 in/hr0.0 mm/hr 0.00 in0.0 mm
11:44 PM 38.1°F3.4°C 25.1°F-3.8°C 59% Calm Calm 2.0 mph3.2 kmh 30.21 in1023.0 mb 0.00 in0.0 mm 0.00 in/hr0.0 mm/hr 0.00 in0.0 mm
11:46 PM 38.1°F3.4°C 25.1°F-3.8°C 59% 1.3 mph SSE2.1 kmh SSE 3.0 mph4.8 kmh 30.21 in1023.0 mb 0.00 in0.0 mm 0.00 in/hr0.0 mm/hr 0.00 in0.0 mm
11:48 PM 38.1°F3.4°C 25.1°F-3.8°C 59% 2.6 mph SSE4.2 kmh SSE 3.0 mph4.8 kmh 30.21 in1023.0 mb 0.00 in0.0 mm 0.00 in/hr0.0 mm/hr 0.00 in0.0 mm
11:50 PM 38.1°F3.4°C 25.1°F-3.8°C 59% 1.3 mph SE2.1 kmh SE 3.0 mph4.8 kmh 30.21 in1023.0 mb 0.00 in0.0 mm 0.00 in/hr0.0 mm/hr 0.00 in0.0 mm
11:52 PM 38.1°F3.4°C 25.1°F-3.8°C 59% 2.6 mph SE4.2 kmh SE 3.0 mph4.8 kmh 30.21 in1023.0 mb 0.00 in0.0 mm 0.00 in/hr0.0 mm/hr 0.00 in0.0 mm
11:54 PM 38.1°F3.4°C 25.1°F-3.8°C 59% 1.3 mph SE2.1 kmh SE 3.0 mph4.8 kmh 30.21 in1023.0 mb 0.00 in0.0 mm 0.00 in/hr0.0 mm/hr 0.00 in0.0 mm
11:56 PM 37.1°F2.8°C 24.5°F-4.2°C 60% Calm Calm 2.0 mph3.2 kmh 30.21 in1023.0 mb 0.00 in0.0 mm 0.00 in/hr0.0 mm/hr 0.00 in0.0 mm
11:58 PM 38.1°F3.4°C 24.7°F-4.1°C 58% Calm Calm 1.0 mph1.6 kmh 30.21 in1023.0 mb 0.00 in0.0 mm 0.00 in/hr0.0 mm/hr 0.00 in0.0 mm